Observation data for Fort Chadbourne on 03/09/2018      Previous  Date       Current Mesonet Observations  Soil Data  Daily Summary Page  Observations in Plain Language
KCH1 090600Z 13004KT 09/M03 A2998 RMK A01 T00911032  RH  042%=      5-min Rain = 0
KCH1 090601Z 13004KT 09/M03 A2998 RMK A01 T00921032  RH  042%=      5-min Rain = 0
KCH1 090602Z 13004KT 09/M03 A2998 RMK A01 T00931031  RH  042%=      5-min Rain = 0
KCH1 090603Z 13004KT 09/M03 A2998 RMK A01 T00941030  RH  041%=      5-min Rain = 0
KCH1 090604Z 13005KT 09/M03 A2998 RMK A01 T00941030  RH  042%=      5-min Rain = 0
KCH1 090605Z 13005KT 09/M03 A2998 RMK A01 T00941029  RH  042%=      5-min Rain = 0
KCH1 090606Z 13005KT 09/M03 A2998 RMK A01 T00941028  RH  042%=      5-min Rain = 0
KCH1 090607Z 13005KT 09/M03 A2998 RMK A01 T00931028  RH  043%=      5-min Rain = 0
KCH1 090608Z 13006KT 09/M03 A2998 RMK A01 T00931026  RH  043%=      5-min Rain = 0
KCH1 090609Z 14006KT 09/M03 A2998 RMK A01 T00931026  RH  043%=      5-min Rain = 0
KCH1 090610Z 14006KT 09/M03 A2998 RMK A01 T00931026  RH  043%=      5-min Rain = 0
KCH1 090611Z 14005KT 09/M03 A2998 RMK A01 T00931025  RH  043%=      5-min Rain = 0
KCH1 090612Z 14006KT 09/M03 A2998 RMK A01 T00931025  RH  043%=      5-min Rain = 0
KCH1 090613Z 14005KT 09/M03 A2998 RMK A01 T00931025  RH  044%=      5-min Rain = 0
KCH1 090614Z 13006KT 09/M03 A2998 RMK A01 T00921025  RH  044%=      5-min Rain = 0
KCH1 090615Z 13005KT 09/M03 A2998 RMK A01 T00931026  RH  043%=      5-min Rain = 0
KCH1 090616Z 13005KT 09/M03 A2998 RMK A01 T00931026  RH  043%=      5-min Rain = 0
KCH1 090617Z 13005KT 09/M03 A2998 RMK A01 T00931026  RH  043%=      5-min Rain = 0
KCH1 090618Z 13005KT 09/M03 A2998 RMK A01 T00931027  RH  043%=      5-min Rain = 0
KCH1 090619Z 13005KT 09/M03 A2998 RMK A01 T00931027  RH  043%=      5-min Rain = 0
KCH1 090620Z 14005KT 09/M03 A2998 RMK A01 T00931027  RH  043%=      5-min Rain = 0
KCH1 090621Z 14005KT 09/M03 A2998 RMK A01 T00931026  RH  043%=      5-min Rain = 0
KCH1 090622Z 14005KT 09/M03 A2998 RMK A01 T00931026  RH  043%=      5-min Rain = 0
KCH1 090623Z 14006KT 09/M03 A2998 RMK A01 T00921026  RH  043%=      5-min Rain = 0
KCH1 090624Z 14006KT 09/M03 A2997 RMK A01 T00911026  RH  044%=      5-min Rain = 0
KCH1 090625Z 14006KT 09/M03 A2997 RMK A01 T00911026  RH  044%=      5-min Rain = 0
KCH1 090626Z 14005KT 09/M03 A2997 RMK A01 T00911026  RH  044%=      5-min Rain = 0
KCH1 090627Z 14005KT 09/M03 A2997 RMK A01 T00901026  RH  044%=      5-min Rain = 0
KCH1 090628Z 14005KT 09/M03 A2997 RMK A01 T00901026  RH  044%=      5-min Rain = 0
KCH1 090629Z 15005KT 09/M03 A2997 RMK A01 T00901026  RH  044%=      5-min Rain = 0
KCH1 090630Z 15005KT 09/M03 A2997 RMK A01 T00901026  RH  044%=      5-min Rain = 0
KCH1 090631Z 15005KT 09/M03 A2997 RMK A01 T00901026  RH  044%=      5-min Rain = 0
KCH1 090632Z 15005KT 09/M03 A2997 RMK A01 T00901026  RH  044%=      5-min Rain = 0
KCH1 090633Z 15005KT 09/M03 A2997 RMK A01 T00901026  RH  044%=      5-min Rain = 0
KCH1 090634Z 15006KT 09/M03 A2997 RMK A01 T00901026  RH  044%=      5-min Rain = 0
KCH1 090635Z 15005KT 09/M03 A2997 RMK A01 T00911026  RH  044%=      5-min Rain = 0
KCH1 090636Z 15005KT 09/M03 A2997 RMK A01 T00901026  RH  044%=      5-min Rain = 0
KCH1 090637Z 16005KT 09/M03 A2997 RMK A01 T00901025  RH  044%=      5-min Rain = 0
KCH1 090638Z 15005KT 09/M03 A2997 RMK A01 T00891026  RH  044%=      5-min Rain = 0
KCH1 090639Z 15005KT 09/M03 A2997 RMK A01 T00891026  RH  044%=      5-min Rain = 0
KCH1 090640Z 15005KT 09/M03 A2997 RMK A01 T00891026  RH  044%=      5-min Rain = 0
KCH1 090641Z 16005KT 09/M03 A2997 RMK A01 T00891026  RH  044%=      5-min Rain = 0
KCH1 090642Z 15005KT 09/M03 A2997 RMK A01 T00891026  RH  044%=      5-min Rain = 0
KCH1 090643Z 15005KT 09/M03 A2997 RMK A01 T00881026  RH  044%=      5-min Rain = 0
KCH1 090644Z 15004KT 09/M03 A2997 RMK A01 T00881027  RH  044%=      5-min Rain = 0
KCH1 090645Z 15005KT 09/M03 A2997 RMK A01 T00881026  RH  045%=      5-min Rain = 0
KCH1 090646Z 15004KT 09/M03 A2997 RMK A01 T00871026  RH  045%=      5-min Rain = 0
KCH1 090647Z 15004KT 09/M03 A2997 RMK A01 T00871026  RH  045%=      5-min Rain = 0
KCH1 090648Z 14004KT 09/M03 A2997 RMK A01 T00871026  RH  045%=      5-min Rain = 0
KCH1 090649Z 14004KT 09/M03 A2997 RMK A01 T00861026  RH  045%=      5-min Rain = 0
KCH1 090650Z 14004KT 09/M03 A2997 RMK A01 T00861027  RH  045%=      5-min Rain = 0
KCH1 090651Z 14004KT 09/M03 A2997 RMK A01 T00861026  RH  045%=      5-min Rain = 0
KCH1 090652Z 14004KT 09/M03 A2997 RMK A01 T00851027  RH  045%=      5-min Rain = 0
KCH1 090653Z 14004KT 09/M03 A2997 RMK A01 T00851027  RH  045%=      5-min Rain = 0
KCH1 090654Z 14004KT 09/M03 A2997 RMK A01 T00851027  RH  045%=      5-min Rain = 0
KCH1 090655Z 14004KT 09/M03 A2997 RMK A01 T00851027  RH  045%=      5-min Rain = 0
KCH1 090656Z 13004KT 09/M03 A2997 RMK A01 T00851027  RH  045%=      5-min Rain = 0
KCH1 090657Z 13004KT 09/M03 A2996 RMK A01 T00851027  RH  045%=      5-min Rain = 0
KCH1 090658Z 13004KT 09/M03 A2996 RMK A01 T00851027  RH  045%=      5-min Rain = 0
KCH1 090659Z 13004KT 08/M03 A2996 RMK A01 T00841027  RH  045%=      5-min Rain = 0
KCH1 090700Z 14005KT 08/M03 A2996 RMK A01 T00841027  RH  045%=      5-min Rain = 0
KCH1 090701Z 14004KT 08/M03 A2996 RMK A01 T00841027  RH  046%=      5-min Rain = 0
KCH1 090702Z 14004KT 08/M03 A2996 RMK A01 T00841026  RH  046%=      5-min Rain = 0
KCH1 090703Z 14004KT 08/M03 A2996 RMK A01 T00841026  RH  046%=      5-min Rain = 0
KCH1 090704Z 14004KT 08/M03 A2996 RMK A01 T00841026  RH  046%=      5-min Rain = 0
KCH1 090705Z 14004KT 08/M03 A2996 RMK A01 T00841026  RH  046%=      5-min Rain = 0
KCH1 090706Z 14004KT 08/M03 A2996 RMK A01 T00841026  RH  046%=      5-min Rain = 0
KCH1 090707Z 14004KT 08/M03 A2996 RMK A01 T00841026  RH  046%=      5-min Rain = 0
KCH1 090708Z 14004KT 08/M03 A2996 RMK A01 T00841026  RH  046%=      5-min Rain = 0
KCH1 090709Z 14004KT 08/M03 A2996 RMK A01 T00841026  RH  046%=      5-min Rain = 0
KCH1 090710Z 15004KT 08/M03 A2996 RMK A01 T00841026  RH  046%=      5-min Rain = 0
KCH1 090711Z 15004KT 08/M03 A2996 RMK A01 T00841026  RH  046%=      5-min Rain = 0
KCH1 090712Z 14004KT 08/M03 A2996 RMK A01 T00841026  RH  046%=      5-min Rain = 0
KCH1 090713Z 15004KT 08/M03 A2996 RMK A01 T00841027  RH  046%=      5-min Rain = 0
KCH1 090714Z 14004KT 08/M03 A2996 RMK A01 T00841026  RH  046%=      5-min Rain = 0
KCH1 090715Z 14003KT 08/M03 A2996 RMK A01 T00841026  RH  046%=      5-min Rain = 0
KCH1 090716Z 14004KT 08/M03 A2996 RMK A01 T00841026  RH  046%=      5-min Rain = 0
KCH1 090717Z 14004KT 08/M03 A2996 RMK A01 T00841026  RH  046%=      5-min Rain = 0
KCH1 090718Z 14003KT 08/M03 A2996 RMK A01 T00841026  RH  046%=      5-min Rain = 0
KCH1 090719Z 14003KT 08/M03 A2996 RMK A01 T00841026  RH  046%=      5-min Rain = 0
KCH1 090720Z 14003KT 08/M03 A2996 RMK A01 T00841026  RH  046%=      5-min Rain = 0
KCH1 090721Z 14003KT 08/M03 A2996 RMK A01 T00831026  RH  046%=      5-min Rain = 0
KCH1 090722Z 14003KT 08/M03 A2996 RMK A01 T00831026  RH  046%=      5-min Rain = 0
KCH1 090723Z 14003KT 08/M03 A2996 RMK A01 T00831026  RH  046%=      5-min Rain = 0
KCH1 090724Z 14003KT 08/M03 A2996 RMK A01 T00831026  RH  046%=      5-min Rain = 0
KCH1 090725Z 14004KT 08/M03 A2996 RMK A01 T00821026  RH  046%=      5-min Rain = 0
KCH1 090726Z 14004KT 08/M03 A2996 RMK A01 T00821026  RH  046%=      5-min Rain = 0
KCH1 090727Z 15004KT 08/M03 A2996 RMK A01 T00821026  RH  047%=      5-min Rain = 0
KCH1 090728Z 15004KT 08/M03 A2996 RMK A01 T00821026  RH  047%=      5-min Rain = 0
KCH1 090729Z 15004KT 08/M03 A2996 RMK A01 T00821025  RH  047%=      5-min Rain = 0
KCH1 090730Z 15003KT 08/M03 A2996 RMK A01 T00811025  RH  047%=      5-min Rain = 0
KCH1 090731Z 15004KT 08/M03 A2996 RMK A01 T00811025  RH  047%=      5-min Rain = 0
KCH1 090732Z 15004KT 08/M03 A2996 RMK A01 T00811025  RH  047%=      5-min Rain = 0
KCH1 090733Z 15004KT 08/M03 A2996 RMK A01 T00811025  RH  047%=      5-min Rain = 0
KCH1 090734Z 14004KT 08/M03 A2996 RMK A01 T00811025  RH  047%=      5-min Rain = 0
KCH1 090735Z 14003KT 08/M03 A2996 RMK A01 T00811025  RH  047%=      5-min Rain = 0
KCH1 090736Z 14003KT 08/M03 A2996 RMK A01 T00811025  RH  047%=      5-min Rain = 0
KCH1 090737Z 14003KT 08/M03 A2996 RMK A01 T00811025  RH  047%=      5-min Rain = 0
KCH1 090738Z 14003KT 08/M02 A2996 RMK A01 T00811024  RH  047%=      5-min Rain = 0
KCH1 090739Z 14003KT 08/M02 A2996 RMK A01 T00811024  RH  047%=      5-min Rain = 0
KCH1 090740Z 14003KT 08/M02 A2996 RMK A01 T00811024  RH  047%=      5-min Rain = 0
KCH1 090741Z 14003KT 08/M02 A2996 RMK A01 T00811024  RH  047%=      5-min Rain = 0
KCH1 090742Z 13002KT 08/M02 A2996 RMK A01 T00811024  RH  047%=      5-min Rain = 0
KCH1 090743Z 13003KT 08/M03 A2996 RMK A01 T00801025  RH  047%=      5-min Rain = 0
KCH1 090744Z 13003KT 08/M03 A2996 RMK A01 T00791025  RH  048%=      5-min Rain = 0
KCH1 090745Z 13003KT 08/M03 A2996 RMK A01 T00781025  RH  048%=      5-min Rain = 0
KCH1 090746Z 13003KT 08/M03 A2996 RMK A01 T00771026  RH  048%=      5-min Rain = 0
KCH1 090747Z 13003KT 08/M03 A2996 RMK A01 T00761026  RH  048%=      5-min Rain = 0
KCH1 090748Z 13003KT 08/M03 A2996 RMK A01 T00761025  RH  049%=      5-min Rain = 0
KCH1 090749Z 13003KT 08/M03 A2996 RMK A01 T00751025  RH  049%=      5-min Rain = 0
KCH1 090750Z 13003KT 08/M03 A2996 RMK A01 T00751025  RH  049%=      5-min Rain = 0
KCH1 090751Z 13003KT 08/M03 A2996 RMK A01 T00751025  RH  049%=      5-min Rain = 0
KCH1 090752Z 13003KT 07/M03 A2996 RMK A01 T00741025  RH  049%=      5-min Rain = 0
KCH1 090753Z 13003KT 07/M03 A2996 RMK A01 T00731025  RH  050%=      5-min Rain = 0
KCH1 090754Z 13003KT 07/M03 A2996 RMK A01 T00731025  RH  050%=      5-min Rain = 0
KCH1 090755Z 13003KT 07/M03 A2996 RMK A01 T00731025  RH  050%=      5-min Rain = 0
KCH1 090756Z 14003KT 07/M02 A2996 RMK A01 T00721024  RH  050%=      5-min Rain = 0
KCH1 090757Z 14004KT 07/M02 A2996 RMK A01 T00721024  RH  051%=      5-min Rain = 0
KCH1 090758Z 14004KT 07/M02 A2995 RMK A01 T00731023  RH  050%=      5-min Rain = 0
KCH1 090759Z 15004KT 07/M02 A2995 RMK A01 T00731023  RH  050%=      5-min Rain = 0
KCH1 090800Z 15004KT 07/M02 A2995 RMK A01 T00741023  RH  050%=      5-min Rain = 0
KCH1 090801Z 15004KT 08/M02 A2995 RMK A01 T00751022  RH  050%=      5-min Rain = 0
KCH1 090802Z 15004KT 08/M02 A2995 RMK A01 T00761022  RH  050%=      5-min Rain = 0
KCH1 090803Z 15004KT 08/M02 A2995 RMK A01 T00771022  RH  050%=      5-min Rain = 0
KCH1 090804Z 15004KT 08/M02 A2995 RMK A01 T00771021  RH  050%=      5-min Rain = 0
KCH1 090805Z 15004KT 08/M02 A2995 RMK A01 T00771021  RH  050%=      5-min Rain = 0
KCH1 090806Z 15005KT 08/M02 A2995 RMK A01 T00771021  RH  050%=      5-min Rain = 0
KCH1 090807Z 15004KT 08/M02 A2995 RMK A01 T00781020  RH  050%=      5-min Rain = 0
KCH1 090808Z 15004KT 08/M02 A2995 RMK A01 T00781019  RH  050%=      5-min Rain = 0
KCH1 090809Z 15004KT 08/M02 A2995 RMK A01 T00781019  RH  050%=      5-min Rain = 0
KCH1 090810Z 15004KT 08/M02 A2995 RMK A01 T00781019  RH  050%=      5-min Rain = 0
KCH1 090811Z 14004KT 08/M02 A2995 RMK A01 T00771019  RH  050%=      5-min Rain = 0
KCH1 090812Z 14004KT 08/M02 A2995 RMK A01 T00761021  RH  050%=      5-min Rain = 0
KCH1 090813Z 14004KT 08/M02 A2995 RMK A01 T00751022  RH  050%=      5-min Rain = 0
KCH1 090814Z 13004KT 07/M02 A2995 RMK A01 T00721023  RH  051%=      5-min Rain = 0
KCH1 090815Z 13004KT 07/M02 A2995 RMK A01 T00701023  RH  051%=      5-min Rain = 0
KCH1 090816Z 12003KT 07/M02 A2995 RMK A01 T00681023  RH  052%=      5-min Rain = 0
KCH1 090817Z 12004KT 07/M02 A2995 RMK A01 T00661023  RH  053%=      5-min Rain = 0
KCH1 090818Z 12004KT 07/M02 A2995 RMK A01 T00651023  RH  054%=      5-min Rain = 0
KCH1 090819Z 13004KT 06/M02 A2995 RMK A01 T00641022  RH  054%=      5-min Rain = 0
KCH1 090820Z 13004KT 06/M02 A2995 RMK A01 T00641021  RH  055%=      5-min Rain = 0
KCH1 090821Z 13004KT 06/M02 A2995 RMK A01 T00641020  RH  055%=      5-min Rain = 0
KCH1 090822Z 13004KT 06/M02 A2995 RMK A01 T00641020  RH  055%=      5-min Rain = 0
KCH1 090823Z 14004KT 07/M02 A2995 RMK A01 T00651019  RH  055%=      5-min Rain = 0
KCH1 090824Z 14004KT 07/M02 A2995 RMK A01 T00651019  RH  055%=      5-min Rain = 0
KCH1 090825Z 14004KT 07/M02 A2995 RMK A01 T00661019  RH  055%=      5-min Rain = 0
KCH1 090826Z 14004KT 07/M02 A2995 RMK A01 T00661018  RH  055%=      5-min Rain = 0
KCH1 090827Z 15004KT 07/M02 A2995 RMK A01 T00671017  RH  055%=      5-min Rain = 0
KCH1 090828Z 15004KT 07/M02 A2995 RMK A01 T00681016  RH  055%=      5-min Rain = 0
KCH1 090829Z 15005KT 07/M02 A2995 RMK A01 T00691016  RH  055%=      5-min Rain = 0
KCH1 090830Z 15005KT 07/M02 A2995 RMK A01 T00701015  RH  055%=      5-min Rain = 0
KCH1 090831Z 15005KT 07/M02 A2994 RMK A01 T00701015  RH  055%=      5-min Rain = 0
KCH1 090832Z 15005KT 07/M01 A2994 RMK A01 T00711014  RH  055%=      5-min Rain = 0
KCH1 090833Z 15005KT 07/M01 A2994 RMK A01 T00711013  RH  055%=      5-min Rain = 0
KCH1 090834Z 15005KT 07/M01 A2994 RMK A01 T00711013  RH  055%=      5-min Rain = 0
KCH1 090835Z 15006KT 07/M01 A2994 RMK A01 T00711012  RH  056%=      5-min Rain = 0
KCH1 090836Z 14005KT 07/M01 A2994 RMK A01 T00701012  RH  056%=      5-min Rain = 0
KCH1 090837Z 15005KT 07/M01 A2994 RMK A01 T00701013  RH  056%=      5-min Rain = 0
KCH1 090838Z 14005KT 07/M01 A2994 RMK A01 T00701012  RH  056%=      5-min Rain = 0
KCH1 090839Z 14006KT 07/M01 A2994 RMK A01 T00691012  RH  056%=      5-min Rain = 0
KCH1 090840Z 14005KT 07/M01 A2994 RMK A01 T00691012  RH  056%=      5-min Rain = 0
KCH1 090841Z 14004KT 07/M01 A2994 RMK A01 T00681013  RH  056%=      5-min Rain = 0
KCH1 090842Z 13005KT 07/M01 A2994 RMK A01 T00671014  RH  056%=      5-min Rain = 0
KCH1 090843Z 13004KT 07/M02 A2994 RMK A01 T00651015  RH  057%=      5-min Rain = 0
KCH1 090844Z 13004KT 06/M02 A2994 RMK A01 T00631016  RH  057%=      5-min Rain = 0
KCH1 090845Z 13004KT 06/M02 A2994 RMK A01 T00601017  RH  058%=      5-min Rain = 0
KCH1 090846Z 12003KT 06/M02 A2994 RMK A01 T00591016  RH  059%=      5-min Rain = 0
KCH1 090847Z 12004KT 06/M02 A2994 RMK A01 T00581016  RH  059%=      5-min Rain = 0
KCH1 090848Z 13003KT 06/M02 A2994 RMK A01 T00581016  RH  059%=      5-min Rain = 0
KCH1 090849Z 13003KT 06/M02 A2994 RMK A01 T00571016  RH  059%=      5-min Rain = 0
KCH1 090850Z 12004KT 06/M02 A2994 RMK A01 T00571016  RH  060%=      5-min Rain = 0
KCH1 090851Z 12003KT 06/M02 A2994 RMK A01 T00571015  RH  060%=      5-min Rain = 0
KCH1 090852Z 12003KT 06/M02 A2994 RMK A01 T00571015  RH  060%=      5-min Rain = 0
KCH1 090853Z 12003KT 06/M02 A2994 RMK A01 T00571015  RH  060%=      5-min Rain = 0
KCH1 090854Z 12003KT 06/M01 A2994 RMK A01 T00571014  RH  060%=      5-min Rain = 0
KCH1 090855Z 12004KT 06/M01 A2994 RMK A01 T00571014  RH  060%=      5-min Rain = 0
KCH1 090856Z 12004KT 06/M01 A2994 RMK A01 T00581014  RH  060%=      5-min Rain = 0
KCH1 090857Z 12004KT 06/M01 A2994 RMK A01 T00581013  RH  060%=      5-min Rain = 0
KCH1 090858Z 12004KT 06/M01 A2994 RMK A01 T00581013  RH  060%=      5-min Rain = 0
KCH1 090859Z 12004KT 06/M01 A2994 RMK A01 T00591013  RH  060%=      5-min Rain = 0
KCH1 090900Z 12005KT 06/M01 A2993 RMK A01 T00591013  RH  060%=      5-min Rain = 0
KCH1 090901Z 12005KT 06/M01 A2993 RMK A01 T00591013  RH  060%=      5-min Rain = 0
KCH1 090902Z 12005KT 06/M01 A2993 RMK A01 T00591013  RH  060%=      5-min Rain = 0
KCH1 090903Z 12004KT 06/M01 A2993 RMK A01 T00591013  RH  060%=      5-min Rain = 0
KCH1 090904Z 13004KT 06/M01 A2993 RMK A01 T00591012  RH  060%=      5-min Rain = 0
KCH1 090905Z 13004KT 06/M01 A2993 RMK A01 T00591012  RH  060%=      5-min Rain = 0
KCH1 090906Z 13004KT 06/M01 A2993 RMK A01 T00591011  RH  061%=      5-min Rain = 0
KCH1 090907Z 13005KT 06/M01 A2993 RMK A01 T00591011  RH  061%=      5-min Rain = 0
KCH1 090908Z 12004KT 06/M01 A2993 RMK A01 T00591011  RH  060%=      5-min Rain = 0
KCH1 090909Z 12004KT 06/M01 A2993 RMK A01 T00591011  RH  060%=      5-min Rain = 0
KCH1 090910Z 12004KT 06/M01 A2993 RMK A01 T00591011  RH  061%=      5-min Rain = 0
KCH1 090911Z 13004KT 06/M01 A2993 RMK A01 T00591011  RH  061%=      5-min Rain = 0
KCH1 090912Z 14004KT 06/M01 A2993 RMK A01 T00591011  RH  061%=      5-min Rain = 0
KCH1 090913Z 13004KT 06/M01 A2993 RMK A01 T00601010  RH  061%=      5-min Rain = 0
KCH1 090914Z 14004KT 06/M01 A2993 RMK A01 T00601010  RH  061%=      5-min Rain = 0
KCH1 090915Z 14004KT 06/M01 A2993 RMK A01 T00601009  RH  061%=      5-min Rain = 0
KCH1 090916Z 14004KT 06/M01 A2993 RMK A01 T00601009  RH  061%=      5-min Rain = 0
KCH1 090917Z 14004KT 06/M01 A2993 RMK A01 T00611008  RH  061%=      5-min Rain = 0
KCH1 090918Z 14004KT 06/M01 A2993 RMK A01 T00611007  RH  061%=      5-min Rain = 0
KCH1 090919Z 14004KT 06/M01 A2993 RMK A01 T00621008  RH  061%=      5-min Rain = 0
KCH1 090920Z 13004KT 06/M01 A2993 RMK A01 T00611009  RH  061%=      5-min Rain = 0
KCH1 090921Z 14004KT 06/M01 A2993 RMK A01 T00611009  RH  061%=      5-min Rain = 0
KCH1 090922Z 13004KT 06/M01 A2993 RMK A01 T00601008  RH  062%=      5-min Rain = 0
KCH1 090923Z 13004KT 06/M01 A2993 RMK A01 T00601008  RH  062%=      5-min Rain = 0
KCH1 090924Z 13004KT 06/M01 A2992 RMK A01 T00601008  RH  062%=      5-min Rain = 0
KCH1 090925Z 13003KT 06/M01 A2993 RMK A01 T00601008  RH  062%=      5-min Rain = 0
KCH1 090926Z 13003KT 06/M01 A2993 RMK A01 T00601007  RH  062%=      5-min Rain = 0
KCH1 090927Z 13003KT 06/M01 A2993 RMK A01 T00601007  RH  062%=      5-min Rain = 0
KCH1 090928Z 14002KT 06/M01 A2993 RMK A01 T00601007  RH  062%=      5-min Rain = 0
KCH1 090929Z 14002KT 06/M01 A2993 RMK A01 T00601006  RH  062%=      5-min Rain = 0
KCH1 090930Z 15002KT 06/M01 A2993 RMK A01 T00601006  RH  063%=      5-min Rain = 0
KCH1 090931Z 15002KT 06/M01 A2992 RMK A01 T00601005  RH  063%=      5-min Rain = 0
KCH1 090932Z 15002KT 06/M01 A2992 RMK A01 T00601005  RH  063%=      5-min Rain = 0
KCH1 090933Z 15003KT 06/M01 A2992 RMK A01 T00611005  RH  063%=      5-min Rain = 0
KCH1 090934Z 15003KT 06/M00 A2992 RMK A01 T00611004  RH  063%=      5-min Rain = 0
KCH1 090935Z 15004KT 06/M00 A2992 RMK A01 T00611004  RH  063%=      5-min Rain = 0
KCH1 090936Z 15004KT 06/M00 A2992 RMK A01 T00611002  RH  064%=      5-min Rain = 0
KCH1 090937Z 15005KT 06/M00 A2992 RMK A01 T00621001  RH  064%=      5-min Rain = 0
KCH1 090938Z 15005KT 06/00 A2992 RMK A01 T00630001  RH  065%=      5-min Rain = 0
KCH1 090939Z 15005KT 06/00 A2992 RMK A01 T00640002  RH  065%=      5-min Rain = 0
KCH1 090940Z 16005KT 07/00 A2992 RMK A01 T00650004  RH  065%=      5-min Rain = 0
KCH1 090941Z 15005KT 07/01 A2992 RMK A01 T00650006  RH  066%=      5-min Rain = 0
KCH1 090942Z 14005KT 07/01 A2992 RMK A01 T00660008  RH  066%=      5-min Rain = 0
KCH1 090943Z 15005KT 07/01 A2992 RMK A01 T00670009  RH  066%=      5-min Rain = 0
KCH1 090944Z 15005KT 07/01 A2992 RMK A01 T00670009  RH  066%=      5-min Rain = 0
KCH1 090945Z 15004KT 07/01 A2992 RMK A01 T00670006  RH  065%=      5-min Rain = 0
KCH1 090946Z 15004KT 07/01 A2992 RMK A01 T00660005  RH  065%=      5-min Rain = 0
KCH1 090947Z 14004KT 07/00 A2992 RMK A01 T00650003  RH  065%=      5-min Rain = 0
KCH1 090948Z 15004KT 06/00 A2992 RMK A01 T00640003  RH  065%=      5-min Rain = 0
KCH1 090949Z 15004KT 06/01 A2992 RMK A01 T00640006  RH  067%=      5-min Rain = 0
KCH1 090950Z 15003KT 07/01 A2992 RMK A01 T00650009  RH  067%=      5-min Rain = 0
KCH1 090951Z 15003KT 07/01 A2992 RMK A01 T00660008  RH  067%=      5-min Rain = 0
KCH1 090952Z 15003KT 07/01 A2992 RMK A01 T00660008  RH  066%=      5-min Rain = 0
KCH1 090953Z 14003KT 07/01 A2992 RMK A01 T00660007  RH  066%=      5-min Rain = 0
KCH1 090954Z 14003KT 07/01 A2992 RMK A01 T00660008  RH  066%=      5-min Rain = 0
KCH1 090955Z 14003KT 07/01 A2992 RMK A01 T00650009  RH  067%=      5-min Rain = 0
KCH1 090956Z 14003KT 07/01 A2992 RMK A01 T00650008  RH  067%=      5-min Rain = 0
KCH1 090957Z 12003KT 07/01 A2992 RMK A01 T00650007  RH  067%=      5-min Rain = 0
KCH1 090958Z 12002KT 06/00 A2992 RMK A01 T00640004  RH  066%=      5-min Rain = 0
KCH1 090959Z 11002KT 06/00 A2992 RMK A01 T00630004  RH  066%=      5-min Rain = 0
KCH1 091000Z 12002KT 06/00 A2992 RMK A01 T00610003  RH  066%=      5-min Rain = 0
KCH1 091001Z 11002KT 06/00 A2991 RMK A01 T00600004  RH  067%=      5-min Rain = 0
KCH1 091002Z 11002KT 06/01 A2991 RMK A01 T00600005  RH  068%=      5-min Rain = 0
KCH1 091003Z 11002KT 06/00 A2991 RMK A01 T00590004  RH  068%=      5-min Rain = 0
KCH1 091004Z 12002KT 06/01 A2991 RMK A01 T00590005  RH  068%=      5-min Rain = 0
KCH1 091005Z 11002KT 06/01 A2991 RMK A01 T00590006  RH  069%=      5-min Rain = 0
KCH1 091006Z 11003KT 06/01 A2991 RMK A01 T00590006  RH  069%=      5-min Rain = 0
KCH1 091007Z 11003KT 06/01 A2991 RMK A01 T00600007  RH  069%=      5-min Rain = 0
KCH1 091008Z 12003KT 06/01 A2991 RMK A01 T00610007  RH  069%=      5-min Rain = 0
KCH1 091009Z 11003KT 06/01 A2991 RMK A01 T00610007  RH  068%=      5-min Rain = 0
KCH1 091010Z 11002KT 06/01 A2991 RMK A01 T00610007  RH  068%=      5-min Rain = 0
KCH1 091011Z 12003KT 06/01 A2991 RMK A01 T00610007  RH  068%=      5-min Rain = 0
KCH1 091012Z 12003KT 06/01 A2991 RMK A01 T00610007  RH  068%=      5-min Rain = 0
KCH1 091013Z 12003KT 06/01 A2991 RMK A01 T00610007  RH  068%=      5-min Rain = 0
KCH1 091014Z 12003KT 06/01 A2991 RMK A01 T00600007  RH  069%=      5-min Rain = 0
KCH1 091015Z 12003KT 06/01 A2991 RMK A01 T00600007  RH  069%=      5-min Rain = 0
KCH1 091016Z 11003KT 06/01 A2991 RMK A01 T00590007  RH  069%=      5-min Rain = 0
KCH1 091017Z 11003KT 06/01 A2991 RMK A01 T00590007  RH  069%=      5-min Rain = 0
KCH1 091018Z 11003KT 06/01 A2991 RMK A01 T00590007  RH  069%=      5-min Rain = 0
KCH1 091019Z 11003KT 06/01 A2991 RMK A01 T00600008  RH  069%=      5-min Rain = 0
KCH1 091020Z 11003KT 06/01 A2991 RMK A01 T00600008  RH  069%=      5-min Rain = 0
KCH1 091021Z 12003KT 06/01 A2991 RMK A01 T00600008  RH  069%=      5-min Rain = 0
KCH1 091022Z 11003KT 06/01 A2991 RMK A01 T00600008  RH  069%=      5-min Rain = 0
KCH1 091023Z 13003KT 06/01 A2991 RMK A01 T00600009  RH  070%=      5-min Rain = 0
KCH1 091024Z 13003KT 06/01 A2991 RMK A01 T00600009  RH  070%=      5-min Rain = 0
KCH1 091025Z 14003KT 06/01 A2991 RMK A01 T00600010  RH  070%=      5-min Rain = 0
KCH1 091026Z 14003KT 06/01 A2991 RMK A01 T00610010  RH  070%=      5-min Rain = 0
KCH1 091027Z 14003KT 06/01 A2991 RMK A01 T00610011  RH  070%=      5-min Rain = 0
KCH1 091028Z 14003KT 06/01 A2991 RMK A01 T00620012  RH  070%=      5-min Rain = 0
KCH1 091029Z 14003KT 06/01 A2991 RMK A01 T00620012  RH  070%=      5-min Rain = 0
KCH1 091030Z 14003KT 06/01 A2991 RMK A01 T00620012  RH  070%=      5-min Rain = 0
KCH1 091031Z 14003KT 06/01 A2991 RMK A01 T00620012  RH  070%=      5-min Rain = 0
KCH1 091032Z 14003KT 06/01 A2991 RMK A01 T00630012  RH  070%=      5-min Rain = 0
KCH1 091033Z 14003KT 06/01 A2991 RMK A01 T00620012  RH  070%=      5-min Rain = 0
KCH1 091034Z 14003KT 06/01 A2991 RMK A01 T00620012  RH  070%=      5-min Rain = 0
KCH1 091035Z 15003KT 06/01 A2991 RMK A01 T00620013  RH  071%=      5-min Rain = 0
KCH1 091036Z 14003KT 06/01 A2991 RMK A01 T00620014  RH  072%=      5-min Rain = 0
KCH1 091037Z 14003KT 06/02 A2991 RMK A01 T00620015  RH  072%=      5-min Rain = 0
KCH1 091038Z 13002KT 06/01 A2991 RMK A01 T00630014  RH  071%=      5-min Rain = 0
KCH1 091039Z 13002KT 06/01 A2991 RMK A01 T00620013  RH  071%=      5-min Rain = 0
KCH1 091040Z 12002KT 06/01 A2991 RMK A01 T00620013  RH  071%=      5-min Rain = 0
KCH1 091041Z 11002KT 06/01 A2991 RMK A01 T00610014  RH  072%=      5-min Rain = 0
KCH1 091042Z 12002KT 06/02 A2991 RMK A01 T00610015  RH  072%=      5-min Rain = 0
KCH1 091043Z 09002KT 06/02 A2991 RMK A01 T00610016  RH  073%=      5-min Rain = 0
KCH1 091044Z 10002KT 06/02 A2991 RMK A01 T00610016  RH  073%=      5-min Rain = 0
KCH1 091045Z 09002KT 06/02 A2991 RMK A01 T00610017  RH  073%=      5-min Rain = 0
KCH1 091046Z 10002KT 06/02 A2991 RMK A01 T00610017  RH  074%=      5-min Rain = 0
KCH1 091047Z 10002KT 06/02 A2991 RMK A01 T00610019  RH  074%=      5-min Rain = 0
KCH1 091048Z 09002KT 06/02 A2991 RMK A01 T00620020  RH  074%=      5-min Rain = 0
KCH1 091049Z 10002KT 06/02 A2991 RMK A01 T00620020  RH  074%=      5-min Rain = 0
KCH1 091050Z 10002KT 06/02 A2991 RMK A01 T00630021  RH  074%=      5-min Rain = 0
KCH1 091051Z 11002KT 06/02 A2991 RMK A01 T00630021  RH  074%=      5-min Rain = 0
KCH1 091052Z 12002KT 06/02 A2991 RMK A01 T00630021  RH  075%=      5-min Rain = 0
KCH1 091053Z 11002KT 06/02 A2991 RMK A01 T00630021  RH  075%=      5-min Rain = 0
KCH1 091054Z 12002KT 06/02 A2991 RMK A01 T00630022  RH  075%=      5-min Rain = 0
KCH1 091055Z 11002KT 06/02 A2991 RMK A01 T00630023  RH  075%=      5-min Rain = 0
KCH1 091056Z 11002KT 06/02 A2991 RMK A01 T00640023  RH  075%=      5-min Rain = 0
KCH1 091057Z 11002KT 06/02 A2991 RMK A01 T00640023  RH  075%=      5-min Rain = 0
KCH1 091058Z 10002KT 06/02 A2991 RMK A01 T00640024  RH  075%=      5-min Rain = 0
KCH1 091059Z 12002KT 06/02 A2991 RMK A01 T00640024  RH  075%=      5-min Rain = 0
KCH1 091100Z 11002KT 07/03 A2991 RMK A01 T00650025  RH  076%=      5-min Rain = 0
KCH1 091101Z 11002KT 06/03 A2991 RMK A01 T00640025  RH  076%=      5-min Rain = 0
KCH1 091102Z 11002KT 06/03 A2991 RMK A01 T00640025  RH  076%=      5-min Rain = 0
KCH1 091103Z 11002KT 06/03 A2991 RMK A01 T00640025  RH  076%=      5-min Rain = 0
KCH1 091104Z 11002KT 06/03 A2991 RMK A01 T00640025  RH  076%=      5-min Rain = 0
KCH1 091105Z 11002KT 06/03 A2991 RMK A01 T00640026  RH  076%=      5-min Rain = 0
KCH1 091106Z 11002KT 07/03 A2991 RMK A01 T00650027  RH  077%=      5-min Rain = 0
KCH1 091107Z 11002KT 07/03 A2991 RMK A01 T00650027  RH  077%=      5-min Rain = 0
KCH1 091108Z 10002KT 07/03 A2991 RMK A01 T00650027  RH  077%=      5-min Rain = 0
KCH1 091109Z 11002KT 06/03 A2991 RMK A01 T00640027  RH  077%=      5-min Rain = 0
KCH1 091110Z 10003KT 06/03 A2991 RMK A01 T00640028  RH  077%=      5-min Rain = 0
KCH1 091111Z 11003KT 06/03 A2991 RMK A01 T00640028  RH  078%=      5-min Rain = 0
KCH1 091112Z 11003KT 06/03 A2991 RMK A01 T00640028  RH  078%=      5-min Rain = 0
KCH1 091113Z 12003KT 06/03 A2991 RMK A01 T00640028  RH  078%=      5-min Rain = 0
KCH1 091114Z 12004KT 06/03 A2991 RMK A01 T00640029  RH  078%=      5-min Rain = 0
KCH1 091115Z 12004KT 07/03 A2991 RMK A01 T00650029  RH  078%=      5-min Rain = 0
KCH1 091116Z 12004KT 07/03 A2991 RMK A01 T00660031  RH  079%=      5-min Rain = 0
KCH1 091117Z 12004KT 07/03 A2991 RMK A01 T00660031  RH  078%=      5-min Rain = 0
KCH1 091118Z 12003KT 07/03 A2991 RMK A01 T00670031  RH  078%=      5-min Rain = 0
KCH1 091119Z 12003KT 07/03 A2991 RMK A01 T00670032  RH  078%=      5-min Rain = 0
KCH1 091120Z 13003KT 07/03 A2991 RMK A01 T00670032  RH  078%=      5-min Rain = 0
KCH1 091121Z 12003KT 07/03 A2991 RMK A01 T00680033  RH  078%=      5-min Rain = 0
KCH1 091122Z 13003KT 07/03 A2991 RMK A01 T00680033  RH  078%=      5-min Rain = 0
KCH1 091123Z 13003KT 07/03 A2991 RMK A01 T00680033  RH  078%=      5-min Rain = 0
KCH1 091124Z 13003KT 07/03 A2991 RMK A01 T00680033  RH  078%=      5-min Rain = 0
KCH1 091125Z 13003KT 07/03 A2991 RMK A01 T00690034  RH  079%=      5-min Rain = 0
KCH1 091126Z 13004KT 07/04 A2991 RMK A01 T00690035  RH  079%=      5-min Rain = 0
KCH1 091127Z 14003KT 07/04 A2991 RMK A01 T00700035  RH  079%=      5-min Rain = 0
KCH1 091128Z 14003KT 07/04 A2991 RMK A01 T00700035  RH  079%=      5-min Rain = 0
KCH1 091129Z 14003KT 07/04 A2991 RMK A01 T00700035  RH  079%=      5-min Rain = 0
KCH1 091130Z 14004KT 07/04 A2991 RMK A01 T00690035  RH  078%=      5-min Rain = 0
KCH1 091131Z 14003KT 07/04 A2991 RMK A01 T00690035  RH  079%=      5-min Rain = 0
KCH1 091132Z 15004KT 07/03 A2991 RMK A01 T00690034  RH  079%=      5-min Rain = 0
KCH1 091133Z 14004KT 07/03 A2991 RMK A01 T00680034  RH  079%=      5-min Rain = 0
KCH1 091134Z 15004KT 07/04 A2991 RMK A01 T00680035  RH  079%=      5-min Rain = 0
KCH1 091135Z 14003KT 07/03 A2991 RMK A01 T00670034  RH  079%=      5-min Rain = 0
KCH1 091136Z 14003KT 07/03 A2991 RMK A01 T00670034  RH  080%=      5-min Rain = 0
KCH1 091137Z 14004KT 07/03 A2991 RMK A01 T00670034  RH  080%=      5-min Rain = 0
KCH1 091138Z 13004KT 07/03 A2991 RMK A01 T00660034  RH  080%=      5-min Rain = 0
KCH1 091139Z 13004KT 07/04 A2991 RMK A01 T00660035  RH  080%=      5-min Rain = 0
KCH1 091140Z 13004KT 07/03 A2991 RMK A01 T00650034  RH  080%=      5-min Rain = 0
KCH1 091141Z 12004KT 07/03 A2991 RMK A01 T00650033  RH  081%=      5-min Rain = 0
KCH1 091142Z 12003KT 06/03 A2991 RMK A01 T00640034  RH  081%=      5-min Rain = 0
KCH1 091143Z 11003KT 06/04 A2991 RMK A01 T00640035  RH  082%=      5-min Rain = 0
KCH1 091144Z 11003KT 06/04 A2991 RMK A01 T00640035  RH  082%=      5-min Rain = 0
KCH1 091145Z 11003KT 06/04 A2991 RMK A01 T00640035  RH  082%=      5-min Rain = 0
KCH1 091146Z 11004KT 06/04 A2991 RMK A01 T00640036  RH  082%=      5-min Rain = 0
KCH1 091147Z 11004KT 06/04 A2991 RMK A01 T00630035  RH  082%=      5-min Rain = 0
KCH1 091148Z 11004KT 06/04 A2991 RMK A01 T00630036  RH  083%=      5-min Rain = 0
KCH1 091149Z 11004KT 06/04 A2991 RMK A01 T00630036  RH  083%=      5-min Rain = 0
KCH1 091150Z 12004KT 06/04 A2991 RMK A01 T00630036  RH  083%=      5-min Rain = 0
KCH1 091151Z 12005KT 06/04 A2991 RMK A01 T00630037  RH  084%=      5-min Rain = 0
KCH1 091152Z 12005KT 06/04 A299 RMK A01 T00630039  RH  084%=      5-min Rain = 0
KCH1 091153Z 12005KT 06/04 A299 RMK A01 T00640040  RH  085%=      5-min Rain = 0
KCH1 091154Z 13004KT 07/04 A299 RMK A01 T00650041  RH  084%=      5-min Rain = 0
KCH1 091155Z 13004KT 07/04 A299 RMK A01 T00660042  RH  084%=      5-min Rain = 0
KCH1 091156Z 13004KT 07/04 A299 RMK A01 T00670042  RH  084%=      5-min Rain = 0
KCH1 091157Z 13004KT 07/04 A299 RMK A01 T00680043  RH  084%=      5-min Rain = 0
KCH1 091158Z 13004KT 07/04 A299 RMK A01 T00680043  RH  084%=      5-min Rain = 0
KCH1 091159Z 13004KT 07/04 A299 RMK A01 T00680043  RH  084%=      5-min Rain = 0
KCH1 091200Z 14004KT 07/04 A299 RMK A01 T00680043  RH  084%=      5-min Rain = 0
KCH1 091201Z 14004KT 07/04 A299 RMK A01 T00680044  RH  084%=      5-min Rain = 0
KCH1 091202Z 14004KT 07/04 A299 RMK A01 T00690044  RH  084%=      5-min Rain = 0
KCH1 091203Z 14004KT 07/05 A299 RMK A01 T00690045  RH  085%=      5-min Rain = 0
KCH1 091204Z 14004KT 07/05 A299 RMK A01 T00690046  RH  085%=      5-min Rain = 0
KCH1 091205Z 14004KT 07/05 A299 RMK A01 T00700047  RH  085%=      5-min Rain = 0
KCH1 091206Z 14004KT 07/05 A299 RMK A01 T00700046  RH  085%=      5-min Rain = 0
KCH1 091207Z 14003KT 07/05 A299 RMK A01 T00700046  RH  085%=      5-min Rain = 0
KCH1 091208Z 14003KT 07/05 A299 RMK A01 T00700046  RH  085%=      5-min Rain = 0
KCH1 091209Z 14003KT 07/05 A299 RMK A01 T00700045  RH  084%=      5-min Rain = 0
KCH1 091210Z 14004KT 07/05 A299 RMK A01 T00690045  RH  085%=      5-min Rain = 0
KCH1 091211Z 14004KT 07/05 A299 RMK A01 T00690046  RH  085%=      5-min Rain = 0
KCH1 091212Z 14004KT 07/05 A299 RMK A01 T00690045  RH  085%=      5-min Rain = 0
KCH1 091213Z 14003KT 07/05 A299 RMK A01 T00680045  RH  085%=      5-min Rain = 0
KCH1 091214Z 14003KT 07/05 A299 RMK A01 T00690046  RH  085%=      5-min Rain = 0
KCH1 091215Z 14003KT 07/05 A299 RMK A01 T00680045  RH  085%=      5-min Rain = 0
KCH1 091216Z 14003KT 07/05 A2991 RMK A01 T00680046  RH  086%=      5-min Rain = 0
KCH1 091217Z 14002KT 07/04 A2991 RMK A01 T00680044  RH  085%=      5-min Rain = 0
KCH1 091218Z 15003KT 07/04 A2991 RMK A01 T00670044  RH  085%=      5-min Rain = 0
KCH1 091219Z 15003KT 07/05 A2991 RMK A01 T00670045  RH  086%=      5-min Rain = 0
KCH1 091220Z 15003KT 07/05 A2991 RMK A01 T00670047  RH  087%=      5-min Rain = 0
KCH1 091221Z 15003KT 07/05 A2991 RMK A01 T00680047  RH  087%=      5-min Rain = 0
KCH1 091222Z 14003KT 07/05 A2991 RMK A01 T00680048  RH  087%=      5-min Rain = 0
KCH1 091223Z 15003KT 07/05 A2991 RMK A01 T00680047  RH  087%=      5-min Rain = 0
KCH1 091224Z 15003KT 07/05 A2991 RMK A01 T00680047  RH  087%=      5-min Rain = 0
KCH1 091225Z 15003KT 07/05 A2991 RMK A01 T00680047  RH  086%=      5-min Rain = 0
KCH1 091226Z 15003KT 07/05 A2991 RMK A01 T00680047  RH  086%=      5-min Rain = 0
KCH1 091227Z 15003KT 07/05 A2991 RMK A01 T00670046  RH  086%=      5-min Rain = 0
KCH1 091228Z 14002KT 07/05 A2991 RMK A01 T00670046  RH  086%=      5-min Rain = 0
KCH1 091229Z 14002KT 07/05 A2991 RMK A01 T00670046  RH  086%=      5-min Rain = 0
KCH1 091230Z 13001KT 07/05 A2991 RMK A01 T00660045  RH  086%=      5-min Rain = 0
KCH1 091231Z 14001KT 07/05 A2991 RMK A01 T00660045  RH  087%=      5-min Rain = 0
KCH1 091232Z 12001KT 07/04 A2991 RMK A01 T00650044  RH  087%=      5-min Rain = 0
KCH1 091233Z 13001KT 07/05 A2991 RMK A01 T00650046  RH  087%=      5-min Rain = 0
KCH1 091234Z 12000KT 07/05 A2991 RMK A01 T00650045  RH  088%=      5-min Rain = 0
KCH1 091235Z 00000KT 07/05 A2991 RMK A01 T00650045  RH  087%=      5-min Rain = 0
KCH1 091236Z 08000KT 06/04 A2991 RMK A01 T00640044  RH  087%=      5-min Rain = 0
KCH1 091237Z 13001KT 06/05 A2991 RMK A01 T00640046  RH  088%=      5-min Rain = 0
KCH1 091238Z 10001KT 07/05 A2991 RMK A01 T00650048  RH  089%=      5-min Rain = 0
KCH1 091239Z 12002KT 07/05 A2991 RMK A01 T00660049  RH  089%=      5-min Rain = 0
KCH1 091240Z 13001KT 07/05 A2991 RMK A01 T00660049  RH  089%=      5-min Rain = 0
KCH1 091241Z 11001KT 07/05 A2991 RMK A01 T00660049  RH  089%=      5-min Rain = 0
KCH1 091242Z 13001KT 07/05 A2991 RMK A01 T00660049  RH  089%=      5-min Rain = 0
KCH1 091243Z 14002KT 07/05 A2991 RMK A01 T00650048  RH  089%=      5-min Rain = 0
KCH1 091244Z 14001KT 07/05 A2991 RMK A01 T00650049  RH  089%=      5-min Rain = 0
KCH1 091245Z 15001KT 07/05 A2991 RMK A01 T00650048  RH  089%=      5-min Rain = 0
KCH1 091246Z 14001KT 07/05 A2991 RMK A01 T00650048  RH  089%=      5-min Rain = 0
KCH1 091247Z 14001KT 06/05 A2991 RMK A01 T00640047  RH  089%=      5-min Rain = 0
KCH1 091248Z 14000KT 06/05 A2991 RMK A01 T00630046  RH  089%=      5-min Rain = 0
KCH1 091249Z 00000KT 06/04 A2991 RMK A01 T00620044  RH  088%=      5-min Rain = 0
KCH1 091250Z 00000KT 06/04 A2991 RMK A01 T00620044  RH  089%=      5-min Rain = 0
KCH1 091251Z 00000KT 06/05 A2991 RMK A01 T00610045  RH  089%=      5-min Rain = 0
KCH1 091252Z 00000KT 06/04 A2991 RMK A01 T00600043  RH  089%=      5-min Rain = 0
KCH1 091253Z 00000KT 06/04 A2991 RMK A01 T00600043  RH  089%=      5-min Rain = 0
KCH1 091254Z 16000KT 06/04 A2991 RMK A01 T00600043  RH  089%=      5-min Rain = 0
KCH1 091255Z 16000KT 06/04 A2991 RMK A01 T00590042  RH  089%=      5-min Rain = 0
KCH1 091256Z 17000KT 06/04 A2991 RMK A01 T00590041  RH  089%=      5-min Rain = 0
KCH1 091257Z 16001KT 06/04 A2991 RMK A01 T00580042  RH  089%=      5-min Rain = 0
KCH1 091258Z 17001KT 06/04 A2991 RMK A01 T00580042  RH  089%=      5-min Rain = 0
KCH1 091259Z 17002KT 06/04 A2991 RMK A01 T00590043  RH  090%=      5-min Rain = 0
KCH1 091300Z 16002KT 06/04 A2991 RMK A01 T00580043  RH  090%=      5-min Rain = 0
KCH1 091301Z 16002KT 06/04 A2991 RMK A01 T00590044  RH  090%=      5-min Rain = 0
KCH1 091302Z 17002KT 06/04 A2991 RMK A01 T00580044  RH  090%=      5-min Rain = 0
KCH1 091303Z 17003KT 06/05 A2991 RMK A01 T00590045  RH  091%=      5-min Rain = 0
KCH1 091304Z 17003KT 06/05 A2991 RMK A01 T00600045  RH  090%=      5-min Rain = 0
KCH1 091305Z 18002KT 06/05 A2991 RMK A01 T00600045  RH  090%=      5-min Rain = 0
KCH1 091306Z 18002KT 06/05 A2991 RMK A01 T00610045  RH  090%=      5-min Rain = 0
KCH1 091307Z 18002KT 06/04 A2991 RMK A01 T00610044  RH  089%=      5-min Rain = 0
KCH1 091308Z 18002KT 06/04 A2991 RMK A01 T00610044  RH  089%=      5-min Rain = 0
KCH1 091309Z 18002KT 06/04 A2991 RMK A01 T00610043  RH  088%=      5-min Rain = 0
KCH1 091310Z 17002KT 06/04 A2991 RMK A01 T00600042  RH  088%=      5-min Rain = 0
KCH1 091311Z 17001KT 06/04 A2991 RMK A01 T00600041  RH  088%=      5-min Rain = 0
KCH1 091312Z 17001KT 06/04 A2991 RMK A01 T00600041  RH  087%=      5-min Rain = 0
KCH1 091313Z 17000KT 06/04 A2991 RMK A01 T00600040  RH  087%=      5-min Rain = 0
KCH1 091314Z 00000KT 06/04 A2991 RMK A01 T00590039  RH  087%=      5-min Rain = 0
KCH1 091315Z 00000KT 06/04 A2991 RMK A01 T00580038  RH  087%=      5-min Rain = 0
KCH1 091316Z 00000KT 06/04 A2991 RMK A01 T00580037  RH  087%=      5-min Rain = 0
KCH1 091317Z 14000KT 06/04 A2991 RMK A01 T00570038  RH  088%=      5-min Rain = 0
KCH1 091318Z 14001KT 06/04 A2991 RMK A01 T00570039  RH  088%=      5-min Rain = 0
KCH1 091319Z 13001KT 06/04 A2991 RMK A01 T00580041  RH  089%=      5-min Rain = 0
KCH1 091320Z 13001KT 06/04 A2991 RMK A01 T00590043  RH  089%=      5-min Rain = 0
KCH1 091321Z 11001KT 06/04 A2991 RMK A01 T00590044  RH  090%=      5-min Rain = 0
KCH1 091322Z 11002KT 06/04 A2991 RMK A01 T00600044  RH  089%=      5-min Rain = 0
KCH1 091323Z 11002KT 06/04 A2991 RMK A01 T00600043  RH  089%=      5-min Rain = 0
KCH1 091324Z 09002KT 06/04 A2991 RMK A01 T00600043  RH  089%=      5-min Rain = 0
KCH1 091325Z 10002KT 06/04 A2991 RMK A01 T00590041  RH  088%=      5-min Rain = 0
KCH1 091326Z 11002KT 06/04 A2991 RMK A01 T00580039  RH  088%=      5-min Rain = 0
KCH1 091327Z 11002KT 06/04 A2991 RMK A01 T00580041  RH  089%=      5-min Rain = 0
KCH1 091328Z 11002KT 06/04 A2991 RMK A01 T00580041  RH  089%=      5-min Rain = 0
KCH1 091329Z 11002KT 06/04 A2991 RMK A01 T00580041  RH  089%=      5-min Rain = 0
KCH1 091330Z 12002KT 06/04 A2991 RMK A01 T00580041  RH  089%=      5-min Rain = 0
KCH1 091331Z 13002KT 06/04 A2991 RMK A01 T00590042  RH  089%=      5-min Rain = 0
KCH1 091332Z 13002KT 06/05 A2991 RMK A01 T00600045  RH  090%=      5-min Rain = 0
KCH1 091333Z 14003KT 06/05 A2991 RMK A01 T00620047  RH  090%=      5-min Rain = 0
KCH1 091334Z 14003KT 06/05 A2991 RMK A01 T00630048  RH  090%=      5-min Rain = 0
KCH1 091335Z 13002KT 07/05 A2991 RMK A01 T00650049  RH  090%=      5-min Rain = 0
KCH1 091336Z 13003KT 07/05 A2991 RMK A01 T00650049  RH  090%=      5-min Rain = 0
KCH1 091337Z 13003KT 07/05 A2991 RMK A01 T00660050  RH  089%=      5-min Rain = 0
KCH1 091338Z 13003KT 07/05 A2991 RMK A01 T00670050  RH  089%=      5-min Rain = 0
KCH1 091339Z 13002KT 07/05 A2991 RMK A01 T00670051  RH  089%=      5-min Rain = 0
KCH1 091340Z 14002KT 07/05 A2992 RMK A01 T00680051  RH  089%=      5-min Rain = 0
KCH1 091341Z 14003KT 07/05 A2992 RMK A01 T00690052  RH  089%=      5-min Rain = 0
KCH1 091342Z 14003KT 07/05 A2991 RMK A01 T00700052  RH  089%=      5-min Rain = 0
KCH1 091343Z 14003KT 07/05 A2991 RMK A01 T00710053  RH  088%=      5-min Rain = 0
KCH1 091344Z 14003KT 07/05 A2991 RMK A01 T00710053  RH  088%=      5-min Rain = 0
KCH1 091345Z 15004KT 07/05 A2991 RMK A01 T00710053  RH  088%=      5-min Rain = 0
KCH1 091346Z 14004KT 07/05 A2991 RMK A01 T00720053  RH  088%=      5-min Rain = 0
KCH1 091347Z 14003KT 07/05 A2991 RMK A01 T00720053  RH  088%=      5-min Rain = 0
KCH1 091348Z 15003KT 07/05 A2991 RMK A01 T00720053  RH  088%=      5-min Rain = 0
KCH1 091349Z 14003KT 07/05 A2991 RMK A01 T00730054  RH  088%=      5-min Rain = 0
KCH1 091350Z 15003KT 07/06 A2991 RMK A01 T00730055  RH  088%=      5-min Rain = 0
KCH1 091351Z 15003KT 07/06 A2991 RMK A01 T00740055  RH  088%=      5-min Rain = 0
KCH1 091352Z 15004KT 08/06 A2991 RMK A01 T00750055  RH  087%=      5-min Rain = 0
KCH1 091353Z 15004KT 08/06 A2991 RMK A01 T00750056  RH  088%=      5-min Rain = 0
KCH1 091354Z 14004KT 08/06 A2991 RMK A01 T00760057  RH  088%=      5-min Rain = 0
KCH1 091355Z 15003KT 08/06 A2991 RMK A01 T00770058  RH  088%=      5-min Rain = 0
KCH1 091356Z 14004KT 08/06 A2991 RMK A01 T00780059  RH  088%=      5-min Rain = 0
KCH1 091357Z 15004KT 08/06 A2991 RMK A01 T00790060  RH  088%=      5-min Rain = 0
KCH1 091358Z 15003KT 08/06 A2991 RMK A01 T00800060  RH  087%=      5-min Rain = 0
KCH1 091359Z 15004KT 08/06 A2991 RMK A01 T00810060  RH  087%=      5-min Rain = 0
KCH1 091400Z 15005KT 08/06 A2991 RMK A01 T00820061  RH  087%=      5-min Rain = 0
KCH1 091401Z 15004KT 08/06 A2991 RMK A01 T00830061  RH  086%=      5-min Rain = 0
KCH1 091402Z 16005KT 08/06 A2991 RMK A01 T00830062  RH  086%=      5-min Rain = 0
KCH1 091403Z 15004KT 08/06 A2991 RMK A01 T00840061  RH  086%=      5-min Rain = 0
KCH1 091404Z 16004KT 09/06 A2991 RMK A01 T00850062  RH  086%=      5-min Rain = 0
KCH1 091405Z 15005KT 09/06 A2991 RMK A01 T00850063  RH  086%=      5-min Rain = 0
KCH1 091406Z 15004KT 09/06 A2991 RMK A01 T00860062  RH  085%=      5-min Rain = 0
KCH1 091407Z 16005KT 09/06 A2991 RMK A01 T00860063  RH  085%=      5-min Rain = 0
KCH1 091408Z 15004KT 09/06 A2991 RMK A01 T00870063  RH  085%=      5-min Rain = 0
KCH1 091409Z 16004KT 09/06 A2992 RMK A01 T00880064  RH  085%=      5-min Rain = 0
KCH1 091410Z 14005KT 09/07 A2992 RMK A01 T00890065  RH  085%=      5-min Rain = 0
KCH1 091411Z 15005KT 09/07 A2992 RMK A01 T00890065  RH  085%=      5-min Rain = 0
KCH1 091412Z 15004KT 09/07 A2992 RMK A01 T00900066  RH  085%=      5-min Rain = 0
KCH1 091413Z 15005KT 09/07 A2992 RMK A01 T00920067  RH  085%=      5-min Rain = 0
KCH1 091414Z 16004KT 09/07 A2992 RMK A01 T00930069  RH  085%=      5-min Rain = 0
KCH1 091415Z 15005KT 09/07 A2992 RMK A01 T00940070  RH  085%=      5-min Rain = 0
KCH1 091416Z 15005KT 10/07 A2992 RMK A01 T00950070  RH  084%=      5-min Rain = 0
KCH1 091417Z 15005KT 10/07 A2992 RMK A01 T00960070  RH  084%=      5-min Rain = 0
KCH1 091418Z 15005KT 10/07 A2991 RMK A01 T00980072  RH  084%=      5-min Rain = 0
KCH1 091419Z 15004KT 10/07 A2991 RMK A01 T00990073  RH  084%=      5-min Rain = 0
KCH1 091420Z 15005KT 10/07 A2991 RMK A01 T01010073  RH  083%=      5-min Rain = 0
KCH1 091421Z 15005KT 10/07 A2991 RMK A01 T01020074  RH  083%=      5-min Rain = 0
KCH1 091422Z 15005KT 10/08 A2991 RMK A01 T01040075  RH  082%=      5-min Rain = 0
KCH1 091423Z 15006KT 10/08 A2991 RMK A01 T01040075  RH  082%=      5-min Rain = 0
KCH1 091424Z 15006KT 11/07 A2991 RMK A01 T01050074  RH  081%=      5-min Rain = 0
KCH1 091425Z 15005KT 11/07 A2991 RMK A01 T01050074  RH  082%=      5-min Rain = 0
KCH1 091426Z 15005KT 11/08 A2991 RMK A01 T01050075  RH  082%=      5-min Rain = 0
KCH1 091427Z 15004KT 11/08 A2991 RMK A01 T01070077  RH  082%=      5-min Rain = 0
KCH1 091428Z 15006KT 11/08 A2991 RMK A01 T01090077  RH  081%=      5-min Rain = 0
KCH1 091429Z 15006KT 11/08 A2991 RMK A01 T01090076  RH  080%=      5-min Rain = 0
KCH1 091430Z 15005KT 11/08 A2991 RMK A01 T01090077  RH  081%=      5-min Rain = 0
KCH1 091431Z 15005KT 11/08 A2991 RMK A01 T01100078  RH  080%=      5-min Rain = 0
KCH1 091432Z 15005KT 11/08 A2991 RMK A01 T01120078  RH  080%=      5-min Rain = 0
KCH1 091433Z 17004KT 11/08 A2991 RMK A01 T01120078  RH  080%=      5-min Rain = 0
KCH1 091434Z 15005KT 11/08 A2991 RMK A01 T01130078  RH  079%=      5-min Rain = 0
KCH1 091435Z 16005KT 11/08 A2991 RMK A01 T01140079  RH  079%=      5-min Rain = 0
KCH1 091436Z 17004KT 12/08 A2991 RMK A01 T01150080  RH  079%=      5-min Rain = 0
KCH1 091437Z 15006KT 12/08 A2991 RMK A01 T01170081  RH  078%=      5-min Rain = 0
KCH1 091438Z 15005KT 12/08 A2991 RMK A01 T01180080  RH  077%=      5-min Rain = 0
KCH1 091439Z 15005KT 12/08 A2991 RMK A01 T01180080  RH  077%=      5-min Rain = 0
KCH1 091440Z 15005KT 12/08 A2991 RMK A01 T01190081  RH  077%=      5-min Rain = 0
KCH1 091441Z 16006KT 12/08 A2991 RMK A01 T01210082  RH  077%=      5-min Rain = 0
KCH1 091442Z 15004KT 12/08 A2991 RMK A01 T01220082  RH  076%=      5-min Rain = 0
KCH1 091443Z 14004KT 12/08 A2991 RMK A01 T01240083  RH  076%=      5-min Rain = 0
KCH1 091444Z 19005KT 13/08 A2991 RMK A01 T01250083  RH  076%=      5-min Rain = 0
KCH1 091445Z 18004KT 13/08 A2991 RMK A01 T01260084  RH  076%=      5-min Rain = 0
KCH1 091446Z 17004KT 13/09 A2991 RMK A01 T01260085  RH  076%=      5-min Rain = 0
KCH1 091447Z 16004KT 13/09 A2991 RMK A01 T01270085  RH  075%=      5-min Rain = 0
KCH1 091448Z 17005KT 13/09 A2991 RMK A01 T01280085  RH  075%=      5-min Rain = 0
KCH1 091449Z 18005KT 13/09 A2991 RMK A01 T01280086  RH  075%=      5-min Rain = 0
KCH1 091450Z 19006KT 13/09 A2991 RMK A01 T01290087  RH  075%=      5-min Rain = 0
KCH1 091451Z 17005KT 13/09 A2991 RMK A01 T01300086  RH  075%=      5-min Rain = 0
KCH1 091452Z 18004KT 13/09 A2991 RMK A01 T01290087  RH  075%=      5-min Rain = 0
KCH1 091453Z 20007G13KT 13/09 A2991 RMK A01 T01290088  RH  076%=      5-min Rain = 0
KCH1 091454Z 19006KT 13/09 A2991 RMK A01 T01290088  RH  076%=      5-min Rain = 0
KCH1 091455Z 19008KT 13/09 A2991 RMK A01 T01290089  RH  077%=      5-min Rain = 0
KCH1 091456Z 18010KT 13/09 A2991 RMK A01 T01300089  RH  076%=      5-min Rain = 0
KCH1 091457Z 21007KT 13/09 A2991 RMK A01 T01290090  RH  077%=      5-min Rain = 0
KCH1 091458Z 20007KT 13/09 A2991 RMK A01 T01300090  RH  077%=      5-min Rain = 0
KCH1 091459Z 20007KT 13/09 A2991 RMK A01 T01310090  RH  076%=      5-min Rain = 0
KCH1 091500Z 21008KT 13/09 A2991 RMK A01 T01310089  RH  076%=      5-min Rain = 0
KCH1 091501Z 19009KT 13/09 A2991 RMK A01 T01300090  RH  076%=      5-min Rain = 0
KCH1 091502Z 19010KT 13/09 A2991 RMK A01 T01310090  RH  077%=      5-min Rain = 0
KCH1 091503Z 19009KT 13/09 A2991 RMK A01 T01310090  RH  076%=      5-min Rain = 0
KCH1 091504Z 19008KT 13/09 A2991 RMK A01 T01310090  RH  076%=      5-min Rain = 0
KCH1 091505Z 19008KT 13/09 A2991 RMK A01 T01310090  RH  076%=      5-min Rain = 0
KCH1 091506Z 18008KT 13/09 A2991 RMK A01 T01320091  RH  076%=      5-min Rain = 0
KCH1 091507Z 19006KT 13/09 A2991 RMK A01 T01340091  RH  076%=      5-min Rain = 0
KCH1 091508Z 19007KT 14/09 A2991 RMK A01 T01350092  RH  075%=      5-min Rain = 0
KCH1 091509Z 20009KT 14/09 A2991 RMK A01 T01360092  RH  074%=      5-min Rain = 0
KCH1 091510Z 20009KT 14/09 A2991 RMK A01 T01360091  RH  074%=      5-min Rain = 0
KCH1 091511Z 20010KT 14/09 A2991 RMK A01 T01350091  RH  075%=      5-min Rain = 0
KCH1 091512Z 20012KT 14/09 A2991 RMK A01 T01350091  RH  075%=      5-min Rain = 0
KCH1 091513Z 19012KT 13/09 A2991 RMK A01 T01340091  RH  075%=      5-min Rain = 0
KCH1 091514Z 19012KT 13/09 A2991 RMK A01 T01330090  RH  075%=      5-min Rain = 0
KCH1 091515Z 20011KT 13/09 A2991 RMK A01 T01330090  RH  075%=      5-min Rain = 0
KCH1 091516Z 20010KT 13/09 A2991 RMK A01 T01330090  RH  075%=      5-min Rain = 0
KCH1 091517Z 19012KT 13/09 A2991 RMK A01 T01330090  RH  075%=      5-min Rain = 0
KCH1 091518Z 20009KT 13/09 A2991 RMK A01 T01340091  RH  075%=      5-min Rain = 0
KCH1 091519Z 19007KT 13/09 A2991 RMK A01 T01330091  RH  075%=      5-min Rain = 0
KCH1 091520Z 19011KT 13/09 A2991 RMK A01 T01340091  RH  075%=      5-min Rain = 0
KCH1 091521Z 20008KT 13/09 A2991 RMK A01 T01340090  RH  075%=      5-min Rain = 0
KCH1 091522Z 18011KT 13/09 A2991 RMK A01 T01330091  RH  075%=      5-min Rain = 0
KCH1 091523Z 20009KT 13/09 A2991 RMK A01 T01340091  RH  075%=      5-min Rain = 0
KCH1 091524Z 20010KT 14/09 A2991 RMK A01 T01350092  RH  075%=      5-min Rain = 0
KCH1 091525Z 21011KT 14/09 A2991 RMK A01 T01360091  RH  074%=      5-min Rain = 0
KCH1 091526Z 20010KT 14/09 A2991 RMK A01 T01360092  RH  075%=      5-min Rain = 0
KCH1 091527Z 20006KT 14/09 A2991 RMK A01 T01360092  RH  074%=      5-min Rain = 0
KCH1 091528Z 19010KT 14/09 A2991 RMK A01 T01370092  RH  074%=      5-min Rain = 0
KCH1 091529Z 20012KT 14/09 A2991 RMK A01 T01390093  RH  074%=      5-min Rain = 0
KCH1 091530Z 19011KT 14/09 A2991 RMK A01 T01400093  RH  073%=      5-min Rain = 0
KCH1 091531Z 19014KT 14/09 A2991 RMK A01 T01410093  RH  073%=      5-min Rain = 0
KCH1 091532Z 19013KT 14/09 A2991 RMK A01 T01410092  RH  072%=      5-min Rain = 0
KCH1 091533Z 20008KT 14/09 A2991 RMK A01 T01410093  RH  073%=      5-min Rain = 0
KCH1 091534Z 21010KT 14/09 A2991 RMK A01 T01430093  RH  072%=      5-min Rain = 0
KCH1 091535Z 21010KT 14/09 A2991 RMK A01 T01440094  RH  072%=      5-min Rain = 0
KCH1 091536Z 20010KT 15/09 A2991 RMK A01 T01450093  RH  071%=      5-min Rain = 0
KCH1 091537Z 18009KT 15/10 A2991 RMK A01 T01460095  RH  071%=      5-min Rain = 0
KCH1 091538Z 20012KT 15/09 A2991 RMK A01 T01480094  RH  070%=      5-min Rain = 0
KCH1 091539Z 19012KT 15/09 A2991 RMK A01 T01470094  RH  070%=      5-min Rain = 0
KCH1 091540Z 19011KT 15/09 A2991 RMK A01 T01460093  RH  071%=      5-min Rain = 0
KCH1 091541Z 21009KT 14/09 A2991 RMK A01 T01440093  RH  071%=      5-min Rain = 0
KCH1 091542Z 21011KT 14/09 A2991 RMK A01 T01440093  RH  072%=      5-min Rain = 0
KCH1 091543Z 20011KT 14/09 A2991 RMK A01 T01440094  RH  072%=      5-min Rain = 0
KCH1 091544Z 21010KT 14/09 A2991 RMK A01 T01440093  RH  071%=      5-min Rain = 0
KCH1 091545Z 20011KT 14/09 A2991 RMK A01 T01440094  RH  072%=      5-min Rain = 0
KCH1 091546Z 21008KT 15/09 A2991 RMK A01 T01450093  RH  071%=      5-min Rain = 0
KCH1 091547Z 20009G16KT 15/10 A2991 RMK A01 T01460095  RH  071%=      5-min Rain = 0
KCH1 091548Z 20009G14KT 15/10 A2991 RMK A01 T01480095  RH  070%=      5-min Rain = 0
KCH1 091549Z 19011G16KT 15/10 A2991 RMK A01 T01480095  RH  071%=      5-min Rain = 0
KCH1 091550Z 19012KT 15/10 A2991 RMK A01 T01500095  RH  070%=      5-min Rain = 0
KCH1 091551Z 18012KT 15/10 A299 RMK A01 T01500095  RH  069%=      5-min Rain = 0
KCH1 091552Z 18011KT 15/09 A2991 RMK A01 T01500094  RH  069%=      5-min Rain = 0
KCH1 091553Z 19011G16KT 15/10 A299 RMK A01 T01500095  RH  070%=      5-min Rain = 0
KCH1 091554Z 20014KT 15/10 A299 RMK A01 T01500095  RH  070%=      5-min Rain = 0
KCH1 091555Z 21009KT 15/10 A299 RMK A01 T01500095  RH  069%=      5-min Rain = 0
KCH1 091556Z 21007KT 15/10 A2991 RMK A01 T01510095  RH  069%=      5-min Rain = 0
KCH1 091557Z 21009KT 15/10 A299 RMK A01 T01530096  RH  069%=      5-min Rain = 0
KCH1 091558Z 21009KT 15/10 A2991 RMK A01 T01540096  RH  068%=      5-min Rain = 0
KCH1 091559Z 19010G15KT 15/10 A2991 RMK A01 T01540096  RH  068%=      5-min Rain = 0
KCH1 091600Z 19012KT 16/10 A2991 RMK A01 T01550096  RH  068%=      5-min Rain = 0
KCH1 091601Z 18012KT 16/10 A2991 RMK A01 T01550096  RH  068%=      5-min Rain = 0
KCH1 091602Z 20012KT 16/10 A2991 RMK A01 T01550096  RH  067%=      5-min Rain = 0
KCH1 091603Z 20011KT 16/10 A2991 RMK A01 T01550095  RH  068%=      5-min Rain = 0
KCH1 091604Z 19008KT 16/10 A299 RMK A01 T01550096  RH  068%=      5-min Rain = 0
KCH1 091605Z 19009KT 16/10 A299 RMK A01 T01570097  RH  068%=      5-min Rain = 0
KCH1 091606Z 20011KT 16/10 A299 RMK A01 T01600097  RH  066%=      5-min Rain = 0
KCH1 091607Z 20008KT 16/10 A299 RMK A01 T01600097  RH  066%=      5-min Rain = 0
KCH1 091608Z 20010KT 16/10 A299 RMK A01 T01620098  RH  066%=      5-min Rain = 0
KCH1 091609Z 20012KT 16/10 A299 RMK A01 T01630097  RH  065%=      5-min Rain = 0
KCH1 091610Z 21011KT 16/10 A299 RMK A01 T01640097  RH  065%=      5-min Rain = 0
KCH1 091611Z 20012KT 16/10 A299 RMK A01 T01640096  RH  064%=      5-min Rain = 0
KCH1 091612Z 18012KT 16/10 A299 RMK A01 T01630096  RH  064%=      5-min Rain = 0
KCH1 091613Z 18012KT 16/10 A299 RMK A01 T01640096  RH  064%=      5-min Rain = 0
KCH1 091614Z 20009G16KT 17/10 A299 RMK A01 T01650098  RH  064%=      5-min Rain = 0
KCH1 091615Z 20013KT 17/10 A299 RMK A01 T01670097  RH  063%=      5-min Rain = 0
KCH1 091616Z 20011KT 17/10 A299 RMK A01 T01650096  RH  064%=      5-min Rain = 0
KCH1 091617Z 21010KT 17/10 A299 RMK A01 T01650097  RH  064%=      5-min Rain = 0
KCH1 091618Z 19013KT 17/10 A299 RMK A01 T01660097  RH  064%=      5-min Rain = 0
KCH1 091619Z 19012KT 17/10 A299 RMK A01 T01650096  RH  064%=      5-min Rain = 0
KCH1 091620Z 18013KT 17/10 A299 RMK A01 T01660097  RH  064%=      5-min Rain = 0
KCH1 091621Z 19011KT 17/10 A299 RMK A01 T01670098  RH  063%=      5-min Rain = 0
KCH1 091622Z 19013G18KT 17/10 A299 RMK A01 T01690098  RH  063%=      5-min Rain = 0
KCH1 091623Z 19014KT 17/10 A299 RMK A01 T01690097  RH  062%=      5-min Rain = 0
KCH1 091624Z 20011KT 17/10 A299 RMK A01 T01680096  RH  062%=      5-min Rain = 0
KCH1 091625Z 19010G15KT 17/10 A299 RMK A01 T01680096  RH  063%=      5-min Rain = 0
KCH1 091626Z 19011KT 17/10 A2989 RMK A01 T01690096  RH  062%=      5-min Rain = 0
KCH1 091627Z 19010KT 17/10 A2989 RMK A01 T01700098  RH  062%=      5-min Rain = 0
KCH1 091628Z 20008KT 17/10 A2989 RMK A01 T01730098  RH  061%=      5-min Rain = 0
KCH1 091629Z 20011KT 18/10 A2989 RMK A01 T01750099  RH  061%=      5-min Rain = 0
KCH1 091630Z 20015KT 18/10 A2989 RMK A01 T01750098  RH  060%=      5-min Rain = 0
KCH1 091631Z 20014KT 17/10 A2989 RMK A01 T01720096  RH  060%=      5-min Rain = 0
KCH1 091632Z 20010KT 17/10 A2989 RMK A01 T01700097  RH  062%=      5-min Rain = 0
KCH1 091633Z 19011G16KT 17/10 A2989 RMK A01 T01740099  RH  061%=      5-min Rain = 0
KCH1 091634Z 21012KT 18/10 A2989 RMK A01 T01750097  RH  060%=      5-min Rain = 0
KCH1 091635Z 18012G19KT 17/10 A2989 RMK A01 T01740097  RH  061%=      5-min Rain = 0
KCH1 091636Z 19013KT 17/10 A2989 RMK A01 T01740097  RH  061%=      5-min Rain = 0
KCH1 091637Z 20011KT 18/10 A2989 RMK A01 T01750099  RH  061%=      5-min Rain = 0
KCH1 091638Z 20010KT 18/10 A2989 RMK A01 T01760099  RH  060%=      5-min Rain = 0
KCH1 091639Z 21010KT 18/10 A2989 RMK A01 T01780099  RH  060%=      5-min Rain = 0
KCH1 091640Z 19012KT 18/10 A2989 RMK A01 T01790098  RH  059%=      5-min Rain = 0
KCH1 091641Z 20013KT 18/10 A2989 RMK A01 T01760097  RH  060%=      5-min Rain = 0
KCH1 091642Z 19008KT 18/10 A2989 RMK A01 T01760098  RH  060%=      5-min Rain = 0
KCH1 091643Z 17012KT 18/10 A2989 RMK A01 T01790099  RH  060%=      5-min Rain = 0
KCH1 091644Z 18010KT 18/10 A2989 RMK A01 T01800099  RH  059%=      5-min Rain = 0
KCH1 091645Z 20011KT 18/10 A2989 RMK A01 T01810099  RH  059%=      5-min Rain = 0
KCH1 091646Z 21009KT 18/10 A2989 RMK A01 T01820098  RH  058%=      5-min Rain = 0
KCH1 091647Z 22010KT 18/10 A2989 RMK A01 T01830098  RH  058%=      5-min Rain = 0
KCH1 091648Z 20010KT 18/10 A2989 RMK A01 T01830098  RH  058%=      5-min Rain = 0
KCH1 091649Z 19006KT 18/10 A2989 RMK A01 T01830100  RH  058%=      5-min Rain = 0
KCH1 091650Z 19008KT 19/10 A2989 RMK A01 T01870101  RH  057%=      5-min Rain = 0
KCH1 091651Z 18011G16KT 19/10 A2989 RMK A01 T01890099  RH  056%=      5-min Rain = 0
KCH1 091652Z 19013KT 19/10 A2989 RMK A01 T01890099  RH  056%=      5-min Rain = 0
KCH1 091653Z 18012KT 19/10 A2989 RMK A01 T01860097  RH  056%=      5-min Rain = 0
KCH1 091654Z 19014KT 19/10 A2989 RMK A01 T01850096  RH  056%=      5-min Rain = 0
KCH1 091655Z 20011KT 18/10 A2989 RMK A01 T01840095  RH  056%=      5-min Rain = 0
KCH1 091656Z 20009KT 18/10 A2989 RMK A01 T01840095  RH  056%=      5-min Rain = 0
KCH1 091657Z 18011KT 19/10 A2989 RMK A01 T01860096  RH  056%=      5-min Rain = 0
KCH1 091658Z 22011KT 19/10 A2989 RMK A01 T01870098  RH  056%=      5-min Rain = 0
KCH1 091659Z 21010KT 19/10 A2989 RMK A01 T01870095  RH  055%=      5-min Rain = 0
KCH1 091700Z 22014KT 19/10 A2989 RMK A01 T01890096  RH  055%=      5-min Rain = 0
KCH1 091701Z 23014KT 19/10 A2988 RMK A01 T01890095  RH  054%=      5-min Rain = 0
KCH1 091702Z 21010KT 19/10 A2989 RMK A01 T01890096  RH  055%=      5-min Rain = 0
KCH1 091703Z 20010G16KT 19/10 A2989 RMK A01 T01900097  RH  055%=      5-min Rain = 0
KCH1 091704Z 20011KT 19/10 A2988 RMK A01 T01910096  RH  054%=      5-min Rain = 0
KCH1 091705Z 20010KT 19/10 A2989 RMK A01 T01920098  RH  055%=      5-min Rain = 0
KCH1 091706Z 21010KT 19/10 A2989 RMK A01 T01930097  RH  054%=      5-min Rain = 0
KCH1 091707Z 23011KT 19/10 A2988 RMK A01 T01920097  RH  054%=      5-min Rain = 0
KCH1 091708Z 22010KT 19/10 A2988 RMK A01 T01900096  RH  054%=      5-min Rain = 0
KCH1 091709Z 21013G19KT 19/10 A2988 RMK A01 T01900097  RH  055%=      5-min Rain = 0
KCH1 091710Z 21015KT 19/10 A2988 RMK A01 T01900095  RH  054%=      5-min Rain = 0
KCH1 091711Z 20013KT 19/09 A2988 RMK A01 T01900094  RH  054%=      5-min Rain = 0
KCH1 091712Z 19010KT 19/10 A2988 RMK A01 T01900095  RH  054%=      5-min Rain = 0
KCH1 091713Z 21009KT 19/10 A2988 RMK A01 T01940096  RH  053%=      5-min Rain = 0
KCH1 091714Z 21010KT 20/10 A2988 RMK A01 T01960097  RH  053%=      5-min Rain = 0
KCH1 091715Z 20013KT 20/10 A2988 RMK A01 T01980096  RH  052%=      5-min Rain = 0
KCH1 091716Z 21013KT 20/10 A2988 RMK A01 T01970095  RH  052%=      5-min Rain = 0
KCH1 091717Z 21011G16KT 20/09 A2988 RMK A01 T01960093  RH  052%=      5-min Rain = 0
KCH1 091718Z 22012KT 20/09 A2988 RMK A01 T01950094  RH  052%=      5-min Rain = 0
KCH1 091719Z 22008KT 20/10 A2988 RMK A01 T01950095  RH  052%=      5-min Rain = 0
KCH1 091720Z 22007KT 20/10 A2988 RMK A01 T01980096  RH  052%=      5-min Rain = 0
KCH1 091721Z 20008KT 20/10 A2988 RMK A01 T02000097  RH  051%=      5-min Rain = 0
KCH1 091722Z 19011KT 20/10 A2988 RMK A01 T02030098  RH  051%=      5-min Rain = 0
KCH1 091723Z 21011KT 20/10 A2988 RMK A01 T02040097  RH  050%=      5-min Rain = 0
KCH1 091724Z 22010KT 20/10 A2988 RMK A01 T02030096  RH  050%=      5-min Rain = 0
KCH1 091725Z 19012KT 20/10 A2988 RMK A01 T02020097  RH  051%=      5-min Rain = 0
KCH1 091726Z 19010KT 20/10 A2988 RMK A01 T02020097  RH  051%=      5-min Rain = 0
KCH1 091727Z 19007KT 20/10 A2988 RMK A01 T02020097  RH  051%=      5-min Rain = 0
KCH1 091728Z 18011KT 20/10 A2988 RMK A01 T02020097  RH  051%=      5-min Rain = 0
KCH1 091729Z 19010KT 20/10 A2988 RMK A01 T02030096  RH  050%=      5-min Rain = 0
KCH1 091730Z 20014KT 20/09 A2988 RMK A01 T02040094  RH  049%=      5-min Rain = 0
KCH1 091731Z 20014KT 20/09 A2988 RMK A01 T02020093  RH  049%=      5-min Rain = 0
KCH1 091732Z 20013KT 20/09 A2988 RMK A01 T01980092  RH  050%=      5-min Rain = 0
KCH1 091733Z 20010KT 20/09 A2988 RMK A01 T01970093  RH  051%=      5-min Rain = 0
KCH1 091734Z 21004KT 20/09 A2988 RMK A01 T01970094  RH  051%=      5-min Rain = 0
KCH1 091735Z 21007KT 20/10 A2988 RMK A01 T01990096  RH  051%=      5-min Rain = 0
KCH1 091736Z 20010KT 20/09 A2988 RMK A01 T02010094  RH  050%=      5-min Rain = 0
KCH1 091737Z 20011G17KT 20/10 A2988 RMK A01 T02020095  RH  050%=      5-min Rain = 0
KCH1 091738Z 21011KT 20/09 A2988 RMK A01 T02040094  RH  049%=      5-min Rain = 0
KCH1 091739Z 20009KT 20/09 A2988 RMK A01 T02040094  RH  049%=      5-min Rain = 0
KCH1 091740Z 19010KT 21/09 A2988 RMK A01 T02050094  RH  049%=      5-min Rain = 0
KCH1 091741Z 22010G15KT 20/09 A2988 RMK A01 T02040094  RH  049%=      5-min Rain = 0
KCH1 091742Z 21008KT 20/09 A2988 RMK A01 T02030094  RH  050%=      5-min Rain = 0
KCH1 091743Z 20010KT 20/10 A2988 RMK A01 T02010095  RH  050%=      5-min Rain = 0
KCH1 091744Z 21010KT 20/10 A2988 RMK A01 T02020095  RH  050%=      5-min Rain = 0
KCH1 091745Z 21011KT 20/10 A2988 RMK A01 T02040095  RH  050%=      5-min Rain = 0
KCH1 091746Z 19009KT 20/10 A2988 RMK A01 T02040095  RH  050%=      5-min Rain = 0
KCH1 091747Z 19010KT 21/10 A2988 RMK A01 T02060097  RH  049%=      5-min Rain = 0
KCH1 091748Z 18010KT 21/10 A2988 RMK A01 T02080096  RH  049%=      5-min Rain = 0
KCH1 091749Z 19009KT 21/10 A2988 RMK A01 T02080095  RH  048%=      5-min Rain = 0
KCH1 091750Z 20009KT 21/10 A2988 RMK A01 T02070095  RH  049%=      5-min Rain = 0
KCH1 091751Z 20011KT 21/09 A2987 RMK A01 T02080094  RH  048%=      5-min Rain = 0
KCH1 091752Z 22014KT 21/09 A2987 RMK A01 T02060092  RH  048%=      5-min Rain = 0
KCH1 091753Z 22014KT 21/09 A2987 RMK A01 T02060092  RH  048%=      5-min Rain = 0
KCH1 091754Z 22014KT 21/09 A2987 RMK A01 T02050092  RH  048%=      5-min Rain = 0
KCH1 091755Z 22013KT 20/09 A2987 RMK A01 T02040092  RH  048%=      5-min Rain = 0
KCH1 091756Z 21012KT 20/09 A2987 RMK A01 T02040092  RH  048%=      5-min Rain = 0
KCH1 091757Z 23011G17KT 21/09 A2987 RMK A01 T02050093  RH  048%=      5-min Rain = 0
KCH1 091758Z 22012KT 21/09 A2987 RMK A01 T02070091  RH  047%=      5-min Rain = 0
KCH1 091759Z 19012KT 21/09 A2987 RMK A01 T02070092  RH  048%=      5-min Rain = 0
KCH1 091800Z 19011KT 21/09 A2987 RMK A01 T02090089  RH  046%=      5-min Rain = 0
KCH1 091801Z 21010G16KT 21/09 A2987 RMK A01 T02090091  RH  047%=      5-min Rain = 0
KCH1 091802Z 22011KT 21/09 A2987 RMK A01 T02100093  RH  047%=      5-min Rain = 0
KCH1 091803Z 20010KT 21/09 A2987 RMK A01 T02110092  RH  047%=      5-min Rain = 0
KCH1 091804Z 20012KT 21/09 A2987 RMK A01 T02110093  RH  047%=      5-min Rain = 0
KCH1 091805Z 20012KT 21/09 A2987 RMK A01 T02130092  RH  046%=      5-min Rain = 0
KCH1 091806Z 21010KT 21/09 A2987 RMK A01 T02130092  RH  046%=      5-min Rain = 0
KCH1 091807Z 21008KT 21/09 A2987 RMK A01 T02120092  RH  046%=      5-min Rain = 0
KCH1 091808Z 20007KT 21/09 A2987 RMK A01 T02130093  RH  046%=      5-min Rain = 0
KCH1 091809Z 21007KT 22/09 A2987 RMK A01 T02150093  RH  046%=      5-min Rain = 0
KCH1 091810Z 21008KT 22/09 A2987 RMK A01 T02170093  RH  045%=      5-min Rain = 0
KCH1 091811Z 22010KT 22/09 A2986 RMK A01 T02180092  RH  045%=      5-min Rain = 0
KCH1 091812Z 20012G17KT 22/09 A2986 RMK A01 T02190092  RH  044%=      5-min Rain = 0
KCH1 091813Z 20013KT 22/09 A2986 RMK A01 T02170090  RH  044%=      5-min Rain = 0
KCH1 091814Z 21011KT 22/09 A2986 RMK A01 T02150091  RH  045%=      5-min Rain = 0
KCH1 091815Z 21008G13KT 22/09 A2986 RMK A01 T02150091  RH  045%=      5-min Rain = 0
KCH1 091816Z 21011KT 22/09 A2986 RMK A01 T02160091  RH  045%=      5-min Rain = 0
KCH1 091817Z 21012KT 22/09 A2986 RMK A01 T02150090  RH  045%=      5-min Rain = 0
KCH1 091818Z 22009KT 21/09 A2986 RMK A01 T02140091  RH  045%=      5-min Rain = 0
KCH1 091819Z 23010KT 22/09 A2986 RMK A01 T02150092  RH  045%=      5-min Rain = 0
KCH1 091820Z 23011G16KT 22/09 A2986 RMK A01 T02170092  RH  045%=      5-min Rain = 0
KCH1 091821Z 23010KT 22/09 A2986 RMK A01 T02190092  RH  044%=      5-min Rain = 0
KCH1 091822Z 23007KT 22/09 A2986 RMK A01 T02200092  RH  044%=      5-min Rain = 0
KCH1 091823Z 21008KT 22/09 A2986 RMK A01 T02210092  RH  044%=      5-min Rain = 0
KCH1 091824Z 20009G14KT 22/09 A2986 RMK A01 T02230089  RH  042%=      5-min Rain = 0
KCH1 091825Z 20012KT 22/09 A2985 RMK A01 T02240087  RH  042%=      5-min Rain = 0
KCH1 091826Z 19011KT 22/09 A2985 RMK A01 T02220085  RH  042%=      5-min Rain = 0
KCH1 091827Z 21010G16KT 22/09 A2985 RMK A01 T02200088  RH  043%=      5-min Rain = 0
KCH1 091828Z 20010KT 22/09 A2985 RMK A01 T02230091  RH  043%=      5-min Rain = 0
KCH1 091829Z 21011KT 22/09 A2985 RMK A01 T02240090  RH  042%=      5-min Rain = 0
KCH1 091830Z 23007KT 22/09 A2985 RMK A01 T02230091  RH  043%=      5-min Rain = 0
KCH1 091831Z 23008G14KT 22/09 A2985 RMK A01 T02230091  RH  043%=      5-min Rain = 0
KCH1 091832Z 22014KT 22/09 A2985 RMK A01 T02240090  RH  043%=      5-min Rain = 0
KCH1 091833Z 22009KT 22/09 A2985 RMK A01 T02200088  RH  043%=      5-min Rain = 0
KCH1 091834Z 21004KT 22/09 A2985 RMK A01 T02190090  RH  044%=      5-min Rain = 0
KCH1 091835Z 20012G17KT 22/09 A2985 RMK A01 T02220091  RH  043%=      5-min Rain = 0
KCH1 091836Z 20011KT 22/09 A2985 RMK A01 T02220090  RH  043%=      5-min Rain = 0
KCH1 091837Z 20012KT 22/09 A2984 RMK A01 T02210090  RH  043%=      5-min Rain = 0
KCH1 091838Z 22009G14KT 22/09 A2984 RMK A01 T02230090  RH  043%=      5-min Rain = 0
KCH1 091839Z 21011KT 22/09 A2984 RMK A01 T02240090  RH  042%=      5-min Rain = 0
KCH1 091840Z 19009KT 22/09 A2984 RMK A01 T02230090  RH  043%=      5-min Rain = 0
KCH1 091841Z 19008KT 22/09 A2984 RMK A01 T02220090  RH  043%=      5-min Rain = 0
KCH1 091842Z 19012KT 22/09 A2984 RMK A01 T02240091  RH  043%=      5-min Rain = 0
KCH1 091843Z 20010KT 23/09 A2984 RMK A01 T02270089  RH  041%=      5-min Rain = 0
KCH1 091844Z 21009KT 23/09 A2984 RMK A01 T02270089  RH  041%=      5-min Rain = 0
KCH1 091845Z 21006KT 23/09 A2984 RMK A01 T02250090  RH  042%=      5-min Rain = 0
KCH1 091846Z 19009KT 23/09 A2984 RMK A01 T02270091  RH  042%=      5-min Rain = 0
KCH1 091847Z 19009KT 23/09 A2984 RMK A01 T02290089  RH  041%=      5-min Rain = 0
KCH1 091848Z 20010KT 23/09 A2984 RMK A01 T02280091  RH  042%=      5-min Rain = 0
KCH1 091849Z 21007KT 23/09 A2984 RMK A01 T02280091  RH  042%=      5-min Rain = 0
KCH1 091850Z 19012KT 23/09 A2984 RMK A01 T02270090  RH  042%=      5-min Rain = 0
KCH1 091851Z 18013KT 23/09 A2983 RMK A01 T02270089  RH  041%=      5-min Rain = 0
KCH1 091852Z 20011G17KT 23/09 A2983 RMK A01 T02260089  RH  041%=      5-min Rain = 0
KCH1 091853Z 21008KT 23/09 A2983 RMK A01 T02280090  RH  041%=      5-min Rain = 0
KCH1 091854Z 22008KT 23/09 A2983 RMK A01 T02310090  RH  041%=      5-min Rain = 0
KCH1 091855Z 21007KT 23/09 A2983 RMK A01 T02310089  RH  040%=      5-min Rain = 0
KCH1 091856Z 18011KT 23/09 A2983 RMK A01 T02300091  RH  041%=      5-min Rain = 0
KCH1 091857Z 17012G19KT 23/09 A2983 RMK A01 T02310091  RH  041%=      5-min Rain = 0
KCH1 091858Z 18013G19KT 23/09 A2982 RMK A01 T02330090  RH  040%=      5-min Rain = 0
KCH1 091859Z 19013KT 23/09 A2983 RMK A01 T02330090  RH  040%=      5-min Rain = 0
KCH1 091900Z 21011G16KT 23/09 A2983 RMK A01 T02340092  RH  040%=      5-min Rain = 0
KCH1 091901Z 20008KT 24/09 A2983 RMK A01 T02350089  RH  039%=      5-min Rain = 0
KCH1 091902Z 20012G17KT 23/09 A2983 RMK A01 T02340088  RH  039%=      5-min Rain = 0
KCH1 091903Z 19011G16KT 23/09 A2983 RMK A01 T02330086  RH  039%=      5-min Rain = 0
KCH1 091904Z 19012KT 23/09 A2982 RMK A01 T02330085  RH  039%=      5-min Rain = 0
KCH1 091905Z 22009KT 23/09 A2982 RMK A01 T02330086  RH  039%=      5-min Rain = 0
KCH1 091906Z 23006KT 23/09 A2982 RMK A01 T02330088  RH  040%=      5-min Rain = 0
KCH1 091907Z 22007KT 23/08 A2982 RMK A01 T02340084  RH  038%=      5-min Rain = 0
KCH1 091908Z 19012KT 24/08 A2982 RMK A01 T02350084  RH  038%=      5-min Rain = 0
KCH1 091909Z 19011KT 24/08 A2982 RMK A01 T02360081  RH  037%=      5-min Rain = 0
KCH1 091910Z 19008KT 23/08 A2982 RMK A01 T02330084  RH  039%=      5-min Rain = 0
KCH1 091911Z 21010KT 23/09 A2982 RMK A01 T02340087  RH  039%=      5-min Rain = 0
KCH1 091912Z 21010KT 24/09 A2982 RMK A01 T02350087  RH  039%=      5-min Rain = 0
KCH1 091913Z 24010KT 23/09 A2982 RMK A01 T02320087  RH  040%=      5-min Rain = 0
KCH1 091914Z 21011KT 23/09 A2982 RMK A01 T02320088  RH  040%=      5-min Rain = 0
KCH1 091915Z 21006KT 24/09 A2982 RMK A01 T02350090  RH  040%=      5-min Rain = 0
KCH1 091916Z 19008KT 24/09 A2982 RMK A01 T02390090  RH  039%=      5-min Rain = 0
KCH1 091917Z 19012KT 24/09 A2981 RMK A01 T02370089  RH  039%=      5-min Rain = 0
KCH1 091918Z 19013KT 24/09 A2981 RMK A01 T02370086  RH  038%=      5-min Rain = 0
KCH1 091919Z 21012KT 24/08 A2981 RMK A01 T02360084  RH  038%=      5-min Rain = 0
KCH1 091920Z 20010KT 24/09 A2981 RMK A01 T02350085  RH  038%=      5-min Rain = 0
KCH1 091921Z 19005KT 24/08 A2981 RMK A01 T02350084  RH  038%=      5-min Rain = 0
KCH1 091922Z 20010KT 24/09 A2981 RMK A01 T02360086  RH  038%=      5-min Rain = 0
KCH1 091923Z 19011KT 24/09 A2981 RMK A01 T02360085  RH  038%=      5-min Rain = 0
KCH1 091924Z 18011KT 24/09 A2981 RMK A01 T02360087  RH  039%=      5-min Rain = 0
KCH1 091925Z 18010G15KT 24/09 A2981 RMK A01 T02360087  RH  039%=      5-min Rain = 0
KCH1 091926Z 18012KT 24/09 A2981 RMK A01 T02360085  RH  038%=      5-min Rain = 0
KCH1 091927Z 20009G14KT 24/09 A2981 RMK A01 T02370088  RH  038%=      5-min Rain = 0
KCH1 091928Z 20013KT 24/09 A2981 RMK A01 T02400086  RH  037%=      5-min Rain = 0
KCH1 091929Z 19011KT 24/08 A2981 RMK A01 T02400084  RH  037%=      5-min Rain = 0
KCH1 091930Z 20011KT 24/08 A2981 RMK A01 T02370084  RH  037%=      5-min Rain = 0
KCH1 091931Z 21011KT 24/08 A298 RMK A01 T02370083  RH  037%=      5-min Rain = 0
KCH1 091932Z 19012KT 24/08 A298 RMK A01 T02370083  RH  037%=      5-min Rain = 0
KCH1 091933Z 20007KT 24/08 A298 RMK A01 T02360082  RH  037%=      5-min Rain = 0
KCH1 091934Z 20008KT 24/09 A298 RMK A01 T02360085  RH  038%=      5-min Rain = 0
KCH1 091935Z 20010KT 24/08 A298 RMK A01 T02400084  RH  037%=      5-min Rain = 0
KCH1 091936Z 20011KT 24/08 A298 RMK A01 T02390081  RH  036%=      5-min Rain = 0
KCH1 091937Z 19010KT 24/08 A298 RMK A01 T02370083  RH  037%=      5-min Rain = 0
KCH1 091938Z 21014KT 24/08 A298 RMK A01 T02400080  RH  036%=      5-min Rain = 0
KCH1 091939Z 22013KT 24/08 A298 RMK A01 T02390076  RH  035%=      5-min Rain = 0
KCH1 091940Z 23009KT 24/08 A298 RMK A01 T02370077  RH  036%=      5-min Rain = 0
KCH1 091941Z 21009KT 24/08 A298 RMK A01 T02390077  RH  035%=      5-min Rain = 0
KCH1 091942Z 20010KT 24/08 A298 RMK A01 T02400076  RH  035%=      5-min Rain = 0
KCH1 091943Z 21008KT 24/08 A298 RMK A01 T02400077  RH  035%=      5-min Rain = 0
KCH1 091944Z 21005KT 24/08 A298 RMK A01 T02380077  RH  036%=      5-min Rain = 0
KCH1 091945Z 19010KT 24/08 A298 RMK A01 T02390080  RH  036%=      5-min Rain = 0
KCH1 091946Z 17009KT 24/08 A298 RMK A01 T02400081  RH  036%=      5-min Rain = 0
KCH1 091947Z 17010KT 24/08 A298 RMK A01 T02400081  RH  036%=      5-min Rain = 0
KCH1 091948Z 16008KT 24/08 A298 RMK A01 T02420083  RH  036%=      5-min Rain = 0
KCH1 091949Z 19007KT 24/08 A298 RMK A01 T02440084  RH  036%=      5-min Rain = 0
KCH1 091950Z 20009KT 25/08 A298 RMK A01 T02470081  RH  035%=      5-min Rain = 0
KCH1 091951Z 21009KT 25/08 A298 RMK A01 T02480075  RH  033%=      5-min Rain = 0
KCH1 091952Z 23006KT 25/07 A298 RMK A01 T02470071  RH  032%=      5-min Rain = 0
KCH1 091953Z 20005KT 25/07 A298 RMK A01 T02470072  RH  033%=      5-min Rain = 0
KCH1 091954Z 20005KT 25/07 A298 RMK A01 T02490071  RH  032%=      5-min Rain = 0
KCH1 091955Z 19010KT 25/08 A298 RMK A01 T02510075  RH  033%=      5-min Rain = 0
KCH1 091956Z 18011KT 25/07 A2979 RMK A01 T02500073  RH  032%=      5-min Rain = 0
KCH1 091957Z 20010KT 25/07 A2979 RMK A01 T02490074  RH  033%=      5-min Rain = 0
KCH1 091958Z 20007KT 25/08 A2979 RMK A01 T02490077  RH  033%=      5-min Rain = 0
KCH1 091959Z 18011KT 25/08 A2979 RMK A01 T02500080  RH  034%=      5-min Rain = 0
KCH1 092000Z 19008KT 25/08 A2979 RMK A01 T02500081  RH  034%=      5-min Rain = 0
KCH1 092001Z 19008KT 25/08 A2979 RMK A01 T02500082  RH  034%=      5-min Rain = 0
KCH1 092002Z 20007KT 25/08 A2979 RMK A01 T02460082  RH  035%=      5-min Rain = 0
KCH1 092003Z 21006KT 25/08 A2979 RMK A01 T02460083  RH  035%=      5-min Rain = 0
KCH1 092004Z 21008KT 25/08 A2979 RMK A01 T02490080  RH  034%=      5-min Rain = 0
KCH1 092005Z 20006KT 25/08 A2979 RMK A01 T02500082  RH  034%=      5-min Rain = 0
KCH1 092006Z 18009KT 25/08 A2979 RMK A01 T02520084  RH  034%=      5-min Rain = 0
KCH1 092007Z 20011KT 25/08 A2979 RMK A01 T02540083  RH  034%=      5-min Rain = 0
KCH1 092008Z 20009KT 25/08 A2979 RMK A01 T02500081  RH  034%=      5-min Rain = 0
KCH1 092009Z 21007KT 25/08 A2979 RMK A01 T02460081  RH  035%=      5-min Rain = 0
KCH1 092010Z 18010KT 25/08 A2979 RMK A01 T02460077  RH  034%=      5-min Rain = 0
KCH1 092011Z 21010KT 25/08 A2979 RMK A01 T02470079  RH  034%=      5-min Rain = 0
KCH1 092012Z 20009G14KT 25/08 A2979 RMK A01 T02490080  RH  034%=      5-min Rain = 0
KCH1 092013Z 20010KT 25/08 A2979 RMK A01 T02520079  RH  033%=      5-min Rain = 0
KCH1 092014Z 20008KT 25/08 A2979 RMK A01 T02510078  RH  033%=      5-min Rain = 0
KCH1 092015Z 18012KT 25/08 A2979 RMK A01 T02490076  RH  033%=      5-min Rain = 0
KCH1 092016Z 18011KT 25/07 A2979 RMK A01 T02480073  RH  033%=      5-min Rain = 0
KCH1 092017Z 18011KT 25/07 A2979 RMK A01 T02460070  RH  032%=      5-min Rain = 0
KCH1 092018Z 19013G18KT 25/07 A2979 RMK A01 T02450070  RH  033%=      5-min Rain = 0
KCH1 092019Z 19011KT 25/07 A2978 RMK A01 T02450070  RH  033%=      5-min Rain = 0
KCH1 092020Z 19013KT 25/07 A2978 RMK A01 T02450070  RH  033%=      5-min Rain = 0
KCH1 092021Z 19012KT 25/07 A2978 RMK A01 T02450071  RH  033%=      5-min Rain = 0
KCH1 092022Z 20011KT 25/07 A2978 RMK A01 T02460071  RH  033%=      5-min Rain = 0
KCH1 092023Z 20012KT 25/07 A2978 RMK A01 T02470068  RH  032%=      5-min Rain = 0
KCH1 092024Z 20008KT 25/07 A2978 RMK A01 T02470071  RH  032%=      5-min Rain = 0
KCH1 092025Z 19010KT 25/07 A2978 RMK A01 T02510069  RH  031%=      5-min Rain = 0
KCH1 092026Z 20012KT 25/07 A2978 RMK A01 T02500067  RH  031%=      5-min Rain = 0
KCH1 092027Z 21009KT 25/07 A2978 RMK A01 T02490065  RH  031%=      5-min Rain = 0
KCH1 092028Z 19006KT 25/07 A2978 RMK A01 T02470067  RH  032%=      5-min Rain = 0
KCH1 092029Z 21009KT 25/07 A2978 RMK A01 T02510071  RH  032%=      5-min Rain = 0
KCH1 092030Z 21011KT 26/07 A2978 RMK A01 T02550067  RH  030%=      5-min Rain = 0
KCH1 092031Z 24007G12KT 25/06 A2978 RMK A01 T02530063  RH  029%=      5-min Rain = 0
KCH1 092032Z 21007KT 25/06 A2978 RMK A01 T02530064  RH  030%=      5-min Rain = 0
KCH1 092033Z 22007G13KT 25/07 A2978 RMK A01 T02530067  RH  030%=      5-min Rain = 0
KCH1 092034Z 20010KT 26/07 A2978 RMK A01 T02550068  RH  030%=      5-min Rain = 0
KCH1 092035Z 21012KT 26/07 A2978 RMK A01 T02550067  RH  030%=      5-min Rain = 0
KCH1 092036Z 22012KT 25/07 A2977 RMK A01 T02520067  RH  031%=      5-min Rain = 0
KCH1 092037Z 22009KT 25/07 A2977 RMK A01 T02500068  RH  031%=      5-min Rain = 0
KCH1 092038Z 22007KT 25/07 A2977 RMK A01 T02490067  RH  031%=      5-min Rain = 0
KCH1 092039Z 21006KT 25/07 A2977 RMK A01 T02500069  RH  031%=      5-min Rain = 0
KCH1 092040Z 22007KT 25/07 A2977 RMK A01 T02520071  RH  031%=      5-min Rain = 0
KCH1 092041Z 22008KT 26/07 A2977 RMK A01 T02550069  RH  030%=      5-min Rain = 0
KCH1 092042Z 22008KT 25/07 A2977 RMK A01 T02540067  RH  030%=      5-min Rain = 0
KCH1 092043Z 22008G15KT 25/07 A2977 RMK A01 T02530067  RH  030%=      5-min Rain = 0
KCH1 092044Z 22012KT 25/06 A2977 RMK A01 T02530064  RH  030%=      5-min Rain = 0
KCH1 092045Z 22011KT 25/06 A2977 RMK A01 T02510062  RH  030%=      5-min Rain = 0
KCH1 092046Z 22010KT 25/06 A2977 RMK A01 T02500063  RH  030%=      5-min Rain = 0
KCH1 092047Z 21007KT 25/07 A2977 RMK A01 T02500066  RH  031%=      5-min Rain = 0
KCH1 092048Z 20008KT 25/07 A2977 RMK A01 T02530069  RH  031%=      5-min Rain = 0
KCH1 092049Z 21006KT 25/07 A2977 RMK A01 T02540069  RH  031%=      5-min Rain = 0
KCH1 092050Z 21005KT 25/07 A2977 RMK A01 T02540070  RH  031%=      5-min Rain = 0
KCH1 092051Z 21007KT 25/07 A2977 RMK A01 T02540070  RH  031%=      5-min Rain = 0
KCH1 092052Z 20008KT 25/07 A2977 RMK A01 T02540069  RH  031%=      5-min Rain = 0
KCH1 092053Z 22011KT 25/07 A2977 RMK A01 T02530069  RH  031%=      5-min Rain = 0
KCH1 092054Z 19009KT 25/07 A2977 RMK A01 T02510068  RH  031%=      5-min Rain = 0
KCH1 092055Z 19008KT 25/07 A2977 RMK A01 T02500069  RH  031%=      5-min Rain = 0
KCH1 092056Z 20008KT 25/07 A2977 RMK A01 T02510071  RH  032%=      5-min Rain = 0
KCH1 092057Z 22008KT 25/07 A2977 RMK A01 T02520071  RH  032%=      5-min Rain = 0
KCH1 092058Z 20005KT 25/07 A2977 RMK A01 T02520071  RH  031%=      5-min Rain = 0
KCH1 092059Z 23003KT 25/07 A2977 RMK A01 T02530072  RH  032%=      5-min Rain = 0
KCH1 092100Z 20004KT 25/07 A2977 RMK A01 T02530072  RH  031%=      5-min Rain = 0
KCH1 092101Z 17008KT 25/07 A2977 RMK A01 T02540073  RH  031%=      5-min Rain = 0
KCH1 092102Z 18011KT 26/07 A2976 RMK A01 T02560071  RH  031%=      5-min Rain = 0
KCH1 092103Z 20007KT 26/07 A2976 RMK A01 T02580071  RH  030%=      5-min Rain = 0
KCH1 092104Z 19013KT 26/07 A2976 RMK A01 T02590070  RH  030%=      5-min Rain = 0
KCH1 092105Z 22011KT 26/07 A2976 RMK A01 T02570071  RH  030%=      5-min Rain = 0
KCH1 092106Z 23010KT 26/07 A2976 RMK A01 T02560069  RH  030%=      5-min Rain = 0
KCH1 092107Z 21007KT 25/07 A2976 RMK A01 T02540071  RH  031%=      5-min Rain = 0
KCH1 092108Z 21007KT 26/07 A2976 RMK A01 T02550073  RH  031%=      5-min Rain = 0
KCH1 092109Z 22014G19KT 26/07 A2976 RMK A01 T02560070  RH  030%=      5-min Rain = 0
KCH1 092110Z 20010KT 26/07 A2976 RMK A01 T02550065  RH  030%=      5-min Rain = 0
KCH1 092111Z 22010KT 25/07 A2976 RMK A01 T02540066  RH  030%=      5-min Rain = 0
KCH1 092112Z 22008KT 25/07 A2976 RMK A01 T02540065  RH  030%=      5-min Rain = 0
KCH1 092113Z 23009KT 26/07 A2976 RMK A01 T02560066  RH  030%=      5-min Rain = 0
KCH1 092114Z 24008KT 26/06 A2976 RMK A01 T02570063  RH  029%=      5-min Rain = 0
KCH1 092115Z 21005KT 26/06 A2976 RMK A01 T02590064  RH  029%=      5-min Rain = 0
KCH1 092116Z 21005KT 26/07 A2976 RMK A01 T02620070  RH  029%=      5-min Rain = 0
KCH1 092117Z 20012G17KT 27/07 A2976 RMK A01 T02650068  RH  029%=      5-min Rain = 0
KCH1 092118Z 23012KT 27/06 A2976 RMK A01 T02650064  RH  028%=      5-min Rain = 0
KCH1 092119Z 23009KT 26/06 A2976 RMK A01 T02640062  RH  028%=      5-min Rain = 0
KCH1 092120Z 20008KT 26/06 A2976 RMK A01 T02630063  RH  028%=      5-min Rain = 0
KCH1 092121Z 21007KT 26/06 A2976 RMK A01 T02640064  RH  028%=      5-min Rain = 0
KCH1 092122Z 23006KT 27/07 A2976 RMK A01 T02660066  RH  028%=      5-min Rain = 0
KCH1 092123Z 23007KT 27/07 A2976 RMK A01 T02670065  RH  028%=      5-min Rain = 0
KCH1 092124Z 22011KT 27/06 A2976 RMK A01 T02660064  RH  028%=      5-min Rain = 0
KCH1 092125Z 22010KT 26/06 A2976 RMK A01 T02630062  RH  028%=      5-min Rain = 0
KCH1 092126Z 21010KT 26/06 A2976 RMK A01 T02610060  RH  028%=      5-min Rain = 0
KCH1 092127Z 21011G16KT 26/06 A2976 RMK A01 T02590062  RH  028%=      5-min Rain = 0
KCH1 092128Z 21011KT 26/06 A2976 RMK A01 T02580061  RH  028%=      5-min Rain = 0
KCH1 092129Z 20009KT 26/06 A2976 RMK A01 T02570061  RH  028%=      5-min Rain = 0
KCH1 092130Z 21008KT 26/06 A2976 RMK A01 T02560061  RH  029%=      5-min Rain = 0
KCH1 092131Z 21010KT 26/06 A2976 RMK A01 T02560060  RH  028%=      5-min Rain = 0
KCH1 092132Z 22007KT 26/06 A2976 RMK A01 T02560060  RH  028%=      5-min Rain = 0
KCH1 092133Z 21006KT 26/06 A2976 RMK A01 T02570062  RH  029%=      5-min Rain = 0
KCH1 092134Z 20007KT 26/06 A2976 RMK A01 T02600063  RH  028%=      5-min Rain = 0
KCH1 092135Z 20009KT 26/06 A2976 RMK A01 T02620062  RH  028%=      5-min Rain = 0
KCH1 092136Z 21011KT 26/06 A2975 RMK A01 T02620059  RH  027%=      5-min Rain = 0
KCH1 092137Z 20010KT 26/06 A2976 RMK A01 T02600056  RH  027%=      5-min Rain = 0
KCH1 092138Z 20007KT 26/06 A2976 RMK A01 T02580057  RH  027%=      5-min Rain = 0
KCH1 092139Z 22006KT 26/06 A2976 RMK A01 T02580057  RH  028%=      5-min Rain = 0
KCH1 092140Z 22005KT 26/06 A2976 RMK A01 T02580058  RH  028%=      5-min Rain = 0
KCH1 092141Z 20006KT 26/06 A2976 RMK A01 T02580058  RH  028%=      5-min Rain = 0
KCH1 092142Z 21006KT 26/05 A2975 RMK A01 T02580054  RH  027%=      5-min Rain = 0
KCH1 092143Z 22007KT 26/05 A2975 RMK A01 T02570053  RH  027%=      5-min Rain = 0
KCH1 092144Z 22008G13KT 26/05 A2975 RMK A01 T02580054  RH  027%=      5-min Rain = 0
KCH1 092145Z 21009KT 26/06 A2975 RMK A01 T02590056  RH  027%=      5-min Rain = 0
KCH1 092146Z 22010KT 26/06 A2975 RMK A01 T02600055  RH  027%=      5-min Rain = 0
KCH1 092147Z 23013KT 26/05 A2975 RMK A01 T02610053  RH  026%=      5-min Rain = 0
KCH1 092148Z 21013KT 26/05 A2975 RMK A01 T02610053  RH  026%=      5-min Rain = 0
KCH1 092149Z 21011KT 26/05 A2975 RMK A01 T02600054  RH  027%=      5-min Rain = 0
KCH1 092150Z 22009KT 26/06 A2975 RMK A01 T02600056  RH  027%=      5-min Rain = 0
KCH1 092151Z 23009KT 26/06 A2976 RMK A01 T02600057  RH  027%=      5-min Rain = 0
KCH1 092152Z 22009KT 26/06 A2976 RMK A01 T02600055  RH  027%=      5-min Rain = 0
KCH1 092153Z 22008KT 26/06 A2976 RMK A01 T02610056  RH  027%=      5-min Rain = 0
KCH1 092154Z 21006KT 26/06 A2976 RMK A01 T02600058  RH  027%=      5-min Rain = 0
KCH1 092155Z 23006KT 26/06 A2976 RMK A01 T02610060  RH  028%=      5-min Rain = 0
KCH1 092156Z 22008KT 26/06 A2975 RMK A01 T02620060  RH  028%=      5-min Rain = 0
KCH1 092157Z 22009G14KT 26/06 A2975 RMK A01 T02620062  RH  028%=      5-min Rain = 0
KCH1 092158Z 21008KT 26/06 A2976 RMK A01 T02620063  RH  028%=      5-min Rain = 0
KCH1 092159Z 22009KT 26/06 A2976 RMK A01 T02620063  RH  028%=      5-min Rain = 0
KCH1 092200Z 22011KT 26/06 A2976 RMK A01 T02620063  RH  028%=      5-min Rain = 0
KCH1 092201Z 22010KT 26/06 A2976 RMK A01 T02630064  RH  028%=      5-min Rain = 0
KCH1 092202Z 22011KT 26/06 A2976 RMK A01 T02630063  RH  028%=      5-min Rain = 0
KCH1 092203Z 20009KT 26/06 A2975 RMK A01 T02630064  RH  028%=      5-min Rain = 0
KCH1 092204Z 21008KT 26/06 A2975 RMK A01 T02620064  RH  028%=      5-min Rain = 0
KCH1 092205Z 19007KT 26/06 A2975 RMK A01 T02620062  RH  028%=      5-min Rain = 0
KCH1 092206Z 19010KT 26/06 A2975 RMK A01 T02620062  RH  028%=      5-min Rain = 0
KCH1 092207Z 19008KT 26/06 A2975 RMK A01 T02620063  RH  028%=      5-min Rain = 0
KCH1 092208Z 19007KT 26/06 A2975 RMK A01 T02620064  RH  028%=      5-min Rain = 0
KCH1 092209Z 19007KT 26/07 A2975 RMK A01 T02620065  RH  028%=      5-min Rain = 0
KCH1 092210Z 19007KT 26/06 A2975 RMK A01 T02630063  RH  028%=      5-min Rain = 0
KCH1 092211Z 19006KT 26/06 A2975 RMK A01 T02640060  RH  027%=      5-min Rain = 0
KCH1 092212Z 19005KT 26/06 A2975 RMK A01 T02640062  RH  028%=      5-min Rain = 0
KCH1 092213Z 19006KT 27/06 A2975 RMK A01 T02650063  RH  027%=      5-min Rain = 0
KCH1 092214Z 19008KT 27/06 A2975 RMK A01 T02660056  RH  026%=      5-min Rain = 0
KCH1 092215Z 21008KT 27/06 A2975 RMK A01 T02650057  RH  026%=      5-min Rain = 0
KCH1 092216Z 20009KT 26/05 A2975 RMK A01 T02640054  RH  026%=      5-min Rain = 0
KCH1 092217Z 21005KT 27/06 A2975 RMK A01 T02650056  RH  026%=      5-min Rain = 0
KCH1 092218Z 20010KT 27/05 A2975 RMK A01 T02660054  RH  026%=      5-min Rain = 0
KCH1 092219Z 20011KT 27/05 A2975 RMK A01 T02670052  RH  025%=      5-min Rain = 0
KCH1 092220Z 20009KT 27/05 A2975 RMK A01 T02670052  RH  025%=      5-min Rain = 0
KCH1 092221Z 19010KT 27/05 A2975 RMK A01 T02670053  RH  025%=      5-min Rain = 0
KCH1 092222Z 19009KT 27/05 A2975 RMK A01 T02670052  RH  025%=      5-min Rain = 0
KCH1 092223Z 20007KT 27/05 A2975 RMK A01 T02660052  RH  025%=      5-min Rain = 0
KCH1 092224Z 18009KT 27/05 A2974 RMK A01 T02650052  RH  025%=      5-min Rain = 0
KCH1 092225Z 19014KT 27/05 A2974 RMK A01 T02650052  RH  026%=      5-min Rain = 0
KCH1 092226Z 20009KT 27/05 A2974 RMK A01 T02650053  RH  026%=      5-min Rain = 0
KCH1 092227Z 21009KT 27/05 A2974 RMK A01 T02660052  RH  025%=      5-min Rain = 0
KCH1 092228Z 22010KT 27/05 A2974 RMK A01 T02670052  RH  025%=      5-min Rain = 0
KCH1 092229Z 21008KT 27/05 A2974 RMK A01 T02680053  RH  025%=      5-min Rain = 0
KCH1 092230Z 21007KT 27/05 A2974 RMK A01 T02690053  RH  025%=      5-min Rain = 0
KCH1 092231Z 20007KT 27/06 A2974 RMK A01 T02690055  RH  025%=      5-min Rain = 0
KCH1 092232Z 21004KT 27/06 A2974 RMK A01 T02700056  RH  025%=      5-min Rain = 0
KCH1 092233Z 19007KT 27/06 A2974 RMK A01 T02700055  RH  025%=      5-min Rain = 0
KCH1 092234Z 19008KT 27/05 A2974 RMK A01 T02710054  RH  025%=      5-min Rain = 0
KCH1 092235Z 19010KT 27/05 A2974 RMK A01 T02710052  RH  025%=      5-min Rain = 0
KCH1 092236Z 18009KT 27/05 A2974 RMK A01 T02700052  RH  025%=      5-min Rain = 0
KCH1 092237Z 19011KT 27/05 A2974 RMK A01 T02690053  RH  025%=      5-min Rain = 0
KCH1 092238Z 20008KT 27/05 A2974 RMK A01 T02700051  RH  025%=      5-min Rain = 0
KCH1 092239Z 19010KT 27/06 A2974 RMK A01 T02700055  RH  025%=      5-min Rain = 0
KCH1 092240Z 20011KT 27/05 A2974 RMK A01 T02700054  RH  025%=      5-min Rain = 0
KCH1 092241Z 19009KT 27/05 A2974 RMK A01 T02680053  RH  025%=      5-min Rain = 0
KCH1 092242Z 19009KT 27/05 A2974 RMK A01 T02660054  RH  026%=      5-min Rain = 0
KCH1 092243Z 19011KT 26/05 A2974 RMK A01 T02640054  RH  026%=      5-min Rain = 0
KCH1 092244Z 20011KT 26/05 A2974 RMK A01 T02620054  RH  026%=      5-min Rain = 0
KCH1 092245Z 20008KT 26/06 A2974 RMK A01 T02610055  RH  027%=      5-min Rain = 0
KCH1 092246Z 19011KT 26/05 A2974 RMK A01 T02590054  RH  027%=      5-min Rain = 0
KCH1 092247Z 19010KT 26/06 A2974 RMK A01 T02590055  RH  027%=      5-min Rain = 0
KCH1 092248Z 19011KT 26/06 A2974 RMK A01 T02570056  RH  027%=      5-min Rain = 0
KCH1 092249Z 19010KT 26/06 A2974 RMK A01 T02570056  RH  027%=      5-min Rain = 0
KCH1 092250Z 19008KT 26/06 A2974 RMK A01 T02560056  RH  028%=      5-min Rain = 0
KCH1 092251Z 19006KT 26/06 A2974 RMK A01 T02560057  RH  028%=      5-min Rain = 0
KCH1 092252Z 20006KT 26/06 A2974 RMK A01 T02560058  RH  028%=      5-min Rain = 0
KCH1 092253Z 20005KT 26/06 A2974 RMK A01 T02560059  RH  028%=      5-min Rain = 0
KCH1 092254Z 19005KT 26/06 A2974 RMK A01 T02560060  RH  028%=      5-min Rain = 0
KCH1 092255Z 18006KT 26/06 A2974 RMK A01 T02560060  RH  028%=      5-min Rain = 0
KCH1 092256Z 19008KT 26/06 A2973 RMK A01 T02570059  RH  028%=      5-min Rain = 0
KCH1 092257Z 19008KT 26/06 A2973 RMK A01 T02580058  RH  028%=      5-min Rain = 0
KCH1 092258Z 19008KT 26/06 A2973 RMK A01 T02580057  RH  027%=      5-min Rain = 0
KCH1 092259Z 19007KT 26/06 A2974 RMK A01 T02590057  RH  027%=      5-min Rain = 0
KCH1 092300Z 19008KT 26/06 A2974 RMK A01 T02600058  RH  027%=      5-min Rain = 0
KCH1 092301Z 18009KT 26/06 A2974 RMK A01 T02610057  RH  027%=      5-min Rain = 0
KCH1 092302Z 19007KT 26/06 A2974 RMK A01 T02610056  RH  027%=      5-min Rain = 0
KCH1 092303Z 19008KT 26/06 A2974 RMK A01 T02610057  RH  027%=      5-min Rain = 0
KCH1 092304Z 19007KT 26/06 A2974 RMK A01 T02610057  RH  027%=      5-min Rain = 0
KCH1 092305Z 18006KT 26/06 A2974 RMK A01 T02610059  RH  027%=      5-min Rain = 0
KCH1 092306Z 18004KT 26/06 A2974 RMK A01 T02630061  RH  027%=      5-min Rain = 0
KCH1 092307Z 17006KT 27/06 A2974 RMK A01 T02670062  RH  027%=      5-min Rain = 0
KCH1 092308Z 18010KT 27/06 A2973 RMK A01 T02670059  RH  026%=      5-min Rain = 0
KCH1 092309Z 17009KT 27/06 A2973 RMK A01 T02660058  RH  026%=      5-min Rain = 0
KCH1 092310Z 18009KT 27/05 A2973 RMK A01 T02660054  RH  026%=      5-min Rain = 0
KCH1 092311Z 18009KT 27/05 A2973 RMK A01 T02660053  RH  026%=      5-min Rain = 0
KCH1 092312Z 18007KT 27/05 A2973 RMK A01 T02650052  RH  025%=      5-min Rain = 0
KCH1 092313Z 19005KT 27/05 A2973 RMK A01 T02650053  RH  026%=      5-min Rain = 0
KCH1 092314Z 18005KT 27/06 A2973 RMK A01 T02660056  RH  026%=      5-min Rain = 0
KCH1 092315Z 17005KT 27/06 A2973 RMK A01 T02660059  RH  027%=      5-min Rain = 0
KCH1 092316Z 15007KT 27/06 A2973 RMK A01 T02670061  RH  027%=      5-min Rain = 0
KCH1 092317Z 15008KT 27/06 A2973 RMK A01 T02670064  RH  027%=      5-min Rain = 0
KCH1 092318Z 16006KT 27/07 A2973 RMK A01 T02670066  RH  028%=      5-min Rain = 0
KCH1 092319Z 15005KT 27/07 A2973 RMK A01 T02670067  RH  028%=      5-min Rain = 0
KCH1 092320Z 16005KT 27/07 A2973 RMK A01 T02690067  RH  028%=      5-min Rain = 0
KCH1 092321Z 18007KT 27/06 A2973 RMK A01 T02700059  RH  026%=      5-min Rain = 0
KCH1 092322Z 17009KT 27/05 A2973 RMK A01 T02710051  RH  024%=      5-min Rain = 0
KCH1 092323Z 19008KT 27/05 A2972 RMK A01 T02720051  RH  024%=      5-min Rain = 0
KCH1 092324Z 21006KT 27/05 A2972 RMK A01 T02720050  RH  024%=      5-min Rain = 0
KCH1 092325Z 22006KT 27/05 A2972 RMK A01 T02720048  RH  024%=      5-min Rain = 0
KCH1 092326Z 20006KT 27/05 A2972 RMK A01 T02700048  RH  024%=      5-min Rain = 0
KCH1 092327Z 20007KT 27/05 A2972 RMK A01 T02700051  RH  025%=      5-min Rain = 0
KCH1 092328Z 20007KT 27/05 A2973 RMK A01 T02710052  RH  025%=      5-min Rain = 0
KCH1 092329Z 18008KT 27/06 A2973 RMK A01 T02710055  RH  025%=      5-min Rain = 0
KCH1 092330Z 19009KT 27/06 A2973 RMK A01 T02710057  RH  026%=      5-min Rain = 0
KCH1 092331Z 19007KT 27/06 A2973 RMK A01 T02680057  RH  026%=      5-min Rain = 0
KCH1 092332Z 19007KT 27/06 A2973 RMK A01 T02670057  RH  026%=      5-min Rain = 0
KCH1 092333Z 18009KT 27/06 A2973 RMK A01 T02650056  RH  026%=      5-min Rain = 0
KCH1 092334Z 19007KT 26/06 A2973 RMK A01 T02640056  RH  026%=      5-min Rain = 0
KCH1 092335Z 18008KT 26/06 A2973 RMK A01 T02630056  RH  027%=      5-min Rain = 0
KCH1 092336Z 19010KT 26/06 A2973 RMK A01 T02620055  RH  027%=      5-min Rain = 0
KCH1 092337Z 18010KT 26/05 A2973 RMK A01 T02610054  RH  026%=      5-min Rain = 0
KCH1 092338Z 18009KT 26/05 A2973 RMK A01 T02610054  RH  027%=      5-min Rain = 0
KCH1 092339Z 18009KT 26/06 A2973 RMK A01 T02610057  RH  027%=      5-min Rain = 0
KCH1 092340Z 17010KT 26/06 A2973 RMK A01 T02610060  RH  028%=      5-min Rain = 0
KCH1 092341Z 18010KT 26/06 A2973 RMK A01 T02610063  RH  028%=      5-min Rain = 0
KCH1 092342Z 17009KT 26/06 A2973 RMK A01 T02610063  RH  028%=      5-min Rain = 0
KCH1 092343Z 16011KT 26/06 A2973 RMK A01 T02620064  RH  028%=      5-min Rain = 0
KCH1 092344Z 16010KT 26/06 A2973 RMK A01 T02620064  RH  028%=      5-min Rain = 0
KCH1 092345Z 17007KT 26/07 A2973 RMK A01 T02620065  RH  028%=      5-min Rain = 0
KCH1 092346Z 17008KT 26/06 A2973 RMK A01 T02630064  RH  028%=      5-min Rain = 0
KCH1 092347Z 18009KT 26/06 A2973 RMK A01 T02630064  RH  028%=      5-min Rain = 0
KCH1 092348Z 18010KT 26/06 A2973 RMK A01 T02630064  RH  028%=      5-min Rain = 0
KCH1 092349Z 18010KT 26/07 A2973 RMK A01 T02630065  RH  028%=      5-min Rain = 0
KCH1 092350Z 18011KT 26/06 A2973 RMK A01 T02620064  RH  028%=      5-min Rain = 0
KCH1 092351Z 18011KT 26/06 A2973 RMK A01 T02620064  RH  028%=      5-min Rain = 0
KCH1 092352Z 18009KT 26/06 A2973 RMK A01 T02620064  RH  028%=      5-min Rain = 0
KCH1 092353Z 17008KT 26/07 A2973 RMK A01 T02610065  RH  029%=      5-min Rain = 0
KCH1 092354Z 16008KT 26/07 A2973 RMK A01 T02610066  RH  029%=      5-min Rain = 0
KCH1 092355Z 17009KT 26/07 A2973 RMK A01 T02610067  RH  029%=      5-min Rain = 0
KCH1 092356Z 17009KT 26/07 A2973 RMK A01 T02600066  RH  029%=      5-min Rain = 0
KCH1 092357Z 17009KT 26/07 A2973 RMK A01 T02590067  RH  029%=      5-min Rain = 0
KCH1 092358Z 17008KT 26/07 A2974 RMK A01 T02590067  RH  029%=      5-min Rain = 0
KCH1 092359Z 17009KT 26/07 A2974 RMK A01 T02590067  RH  029%=      5-min Rain = 0
KCH1 100000Z 17010KT 26/07 A2974 RMK A01 T02580066  RH  029%=      5-min Rain = 0
KCH1 100001Z 16007KT 26/07 A2974 RMK A01 T02580067  RH  030%=      5-min Rain = 0
KCH1 100002Z 16006KT 26/07 A2974 RMK A01 T02580069  RH  030%=      5-min Rain = 0
KCH1 100003Z 17006KT 26/07 A2974 RMK A01 T02570069  RH  030%=      5-min Rain = 0
KCH1 100004Z 17006KT 26/07 A2974 RMK A01 T02570069  RH  030%=      5-min Rain = 0
KCH1 100005Z 18009KT 26/07 A2973 RMK A01 T02560069  RH  030%=      5-min Rain = 0
KCH1 100006Z 16009KT 26/07 A2973 RMK A01 T02560068  RH  030%=      5-min Rain = 0
KCH1 100007Z 16011KT 26/07 A2973 RMK A01 T02550069  RH  030%=      5-min Rain = 0
KCH1 100008Z 16010KT 25/07 A2973 RMK A01 T02540069  RH  031%=      5-min Rain = 0
KCH1 100009Z 17009KT 25/07 A2973 RMK A01 T02530068  RH  031%=      5-min Rain = 0
KCH1 100010Z 16008KT 25/07 A2973 RMK A01 T02530069  RH  031%=      5-min Rain = 0
KCH1 100011Z 16007KT 25/07 A2973 RMK A01 T02520068  RH  031%=      5-min Rain = 0
KCH1 100012Z 16008KT 25/07 A2973 RMK A01 T02520068  RH  031%=      5-min Rain = 0
KCH1 100013Z 16007KT 25/07 A2973 RMK A01 T02520068  RH  031%=      5-min Rain = 0
KCH1 100014Z 16007KT 25/07 A2973 RMK A01 T02510068  RH  031%=      5-min Rain = 0
KCH1 100015Z 17008KT 25/07 A2973 RMK A01 T02510066  RH  031%=      5-min Rain = 0
KCH1 100016Z 17006KT 25/07 A2973 RMK A01 T02500066  RH  031%=      5-min Rain = 0
KCH1 100017Z 17010KT 25/06 A2973 RMK A01 T02490064  RH  031%=      5-min Rain = 0
KCH1 100018Z 17008KT 25/06 A2973 RMK A01 T02490061  RH  030%=      5-min Rain = 0
KCH1 100019Z 18006KT 25/06 A2973 RMK A01 T02490062  RH  030%=      5-min Rain = 0
KCH1 100020Z 18007KT 25/06 A2973 RMK A01 T02480063  RH  030%=      5-min Rain = 0
KCH1 100021Z 19008KT 25/06 A2973 RMK A01 T02480059  RH  030%=      5-min Rain = 0
KCH1 100022Z 18008KT 25/06 A2973 RMK A01 T02480057  RH  029%=      5-min Rain = 0
KCH1 100023Z 18007KT 25/06 A2973 RMK A01 T02480056  RH  029%=      5-min Rain = 0
KCH1 100024Z 18006KT 25/06 A2973 RMK A01 T02470056  RH  029%=      5-min Rain = 0
KCH1 100025Z 19007KT 25/06 A2973 RMK A01 T02470055  RH  029%=      5-min Rain = 0
KCH1 100026Z 19008KT 25/05 A2973 RMK A01 T02460053  RH  029%=      5-min Rain = 0
KCH1 100027Z 19007KT 25/05 A2973 RMK A01 T02460052  RH  029%=      5-min Rain = 0
KCH1 100028Z 19007KT 25/05 A2973 RMK A01 T02450052  RH  029%=      5-min Rain = 0
KCH1 100029Z 18007KT 24/05 A2973 RMK A01 T02440052  RH  029%=      5-min Rain = 0
KCH1 100030Z 19006KT 24/05 A2973 RMK A01 T02430051  RH  029%=      5-min Rain = 0
KCH1 100031Z 19007KT 24/05 A2973 RMK A01 T02420050  RH  029%=      5-min Rain = 0
KCH1 100032Z 19007KT 24/05 A2973 RMK A01 T02420049  RH  029%=      5-min Rain = 0
KCH1 100033Z 19007KT 24/05 A2973 RMK A01 T02420049  RH  029%=      5-min Rain = 0
KCH1 100034Z 19006KT 24/05 A2973 RMK A01 T02410048  RH  029%=      5-min Rain = 0
KCH1 100035Z 19007KT 24/05 A2974 RMK A01 T02400048  RH  029%=      5-min Rain = 0
KCH1 100036Z 19007KT 24/05 A2974 RMK A01 T02400048  RH  029%=      5-min Rain = 0
KCH1 100037Z 19006KT 24/05 A2974 RMK A01 T02380047  RH  029%=      5-min Rain = 0
KCH1 100038Z 18007KT 24/05 A2974 RMK A01 T02380046  RH  029%=      5-min Rain = 0
KCH1 100039Z 18007KT 24/05 A2974 RMK A01 T02370046  RH  029%=      5-min Rain = 0
KCH1 100040Z 17007KT 24/05 A2974 RMK A01 T02360045  RH  029%=      5-min Rain = 0
KCH1 100041Z 18008KT 24/05 A2974 RMK A01 T02360045  RH  029%=      5-min Rain = 0
KCH1 100042Z 17007KT 24/05 A2974 RMK A01 T02360045  RH  029%=      5-min Rain = 0
KCH1 100043Z 17008KT 24/05 A2974 RMK A01 T02360046  RH  029%=      5-min Rain = 0
KCH1 100044Z 18007KT 24/05 A2974 RMK A01 T02350046  RH  029%=      5-min Rain = 0
KCH1 100045Z 18007KT 24/05 A2974 RMK A01 T02350046  RH  029%=      5-min Rain = 0
KCH1 100046Z 18007KT 24/05 A2974 RMK A01 T02350046  RH  029%=      5-min Rain = 0
KCH1 100047Z 19007KT 24/05 A2974 RMK A01 T02350046  RH  029%=      5-min Rain = 0
KCH1 100048Z 18006KT 24/05 A2974 RMK A01 T02350047  RH  030%=      5-min Rain = 0
KCH1 100049Z 18005KT 23/05 A2974 RMK A01 T02340048  RH  030%=      5-min Rain = 0
KCH1 100050Z 18007KT 23/05 A2974 RMK A01 T02320048  RH  030%=      5-min Rain = 0
KCH1 100051Z 18007KT 23/05 A2974 RMK A01 T02320050  RH  031%=      5-min Rain = 0
KCH1 100052Z 18008KT 23/05 A2974 RMK A01 T02310052  RH  031%=      5-min Rain = 0
KCH1 100053Z 17008KT 23/05 A2974 RMK A01 T02310053  RH  032%=      5-min Rain = 0
KCH1 100054Z 18007KT 23/06 A2974 RMK A01 T02300055  RH  032%=      5-min Rain = 0
KCH1 100055Z 17008KT 23/06 A2974 RMK A01 T02300055  RH  032%=      5-min Rain = 0
KCH1 100056Z 17008KT 23/06 A2974 RMK A01 T02290056  RH  033%=      5-min Rain = 0
KCH1 100057Z 17008KT 23/06 A2974 RMK A01 T02290057  RH  033%=      5-min Rain = 0
KCH1 100058Z 16007KT 23/06 A2974 RMK A01 T02290057  RH  033%=      5-min Rain = 0
KCH1 100059Z 16007KT 23/06 A2974 RMK A01 T02280058  RH  033%=      5-min Rain = 0
KCH1 100100Z 17007KT 23/06 A2974 RMK A01 T02270057  RH  033%=      5-min Rain = 0
KCH1 100101Z 17007KT 23/06 A2974 RMK A01 T02270057  RH  033%=      5-min Rain = 0
KCH1 100102Z 17007KT 23/06 A2974 RMK A01 T02270058  RH  033%=      5-min Rain = 0
KCH1 100103Z 16006KT 23/06 A2974 RMK A01 T02260057  RH  034%=      5-min Rain = 0
KCH1 100104Z 16007KT 23/06 A2974 RMK A01 T02250057  RH  034%=      5-min Rain = 0
KCH1 100105Z 16007KT 22/06 A2974 RMK A01 T02240058  RH  034%=      5-min Rain = 0
KCH1 100106Z 16008KT 22/06 A2974 RMK A01 T02230058  RH  034%=      5-min Rain = 0
KCH1 100107Z 17007KT 22/06 A2974 RMK A01 T02220058  RH  035%=      5-min Rain = 0
KCH1 100108Z 17007KT 22/06 A2974 RMK A01 T02210059  RH  035%=      5-min Rain = 0
KCH1 100109Z 17007KT 22/06 A2974 RMK A01 T02210060  RH  035%=      5-min Rain = 0
KCH1 100110Z 17006KT 22/06 A2974 RMK A01 T02210060  RH  035%=      5-min Rain = 0
KCH1 100111Z 17008KT 22/06 A2974 RMK A01 T02210061  RH  035%=      5-min Rain = 0
KCH1 100112Z 17008KT 22/06 A2974 RMK A01 T02200062  RH  036%=      5-min Rain = 0
KCH1 100113Z 17009KT 22/06 A2974 RMK A01 T02200062  RH  036%=      5-min Rain = 0
KCH1 100114Z 17008KT 22/06 A2974 RMK A01 T02200063  RH  036%=      5-min Rain = 0
KCH1 100115Z 17007KT 22/06 A2975 RMK A01 T02190064  RH  037%=      5-min Rain = 0
KCH1 100116Z 17007KT 22/07 A2975 RMK A01 T02180065  RH  037%=      5-min Rain = 0
KCH1 100117Z 17008KT 22/07 A2975 RMK A01 T02180065  RH  037%=      5-min Rain = 0
KCH1 100118Z 16007KT 22/07 A2975 RMK A01 T02180066  RH  037%=      5-min Rain = 0
KCH1 100119Z 16008KT 22/07 A2975 RMK A01 T02170066  RH  038%=      5-min Rain = 0
KCH1 100120Z 16008KT 22/07 A2975 RMK A01 T02160066  RH  038%=      5-min Rain = 0
KCH1 100121Z 17009KT 22/07 A2975 RMK A01 T02170067  RH  038%=      5-min Rain = 0
KCH1 100122Z 17010KT 22/07 A2975 RMK A01 T02170068  RH  038%=      5-min Rain = 0
KCH1 100123Z 16010KT 22/07 A2975 RMK A01 T02170068  RH  038%=      5-min Rain = 0
KCH1 100124Z 17008KT 22/07 A2975 RMK A01 T02180068  RH  038%=      5-min Rain = 0
KCH1 100125Z 17010KT 22/07 A2975 RMK A01 T02180069  RH  038%=      5-min Rain = 0
KCH1 100126Z 17008KT 22/07 A2975 RMK A01 T02180069  RH  038%=      5-min Rain = 0
KCH1 100127Z 17010KT 22/07 A2975 RMK A01 T02180069  RH  038%=      5-min Rain = 0
KCH1 100128Z 17008KT 22/07 A2975 RMK A01 T02170069  RH  038%=      5-min Rain = 0
KCH1 100129Z 17007KT 22/07 A2975 RMK A01 T02170070  RH  039%=      5-min Rain = 0
KCH1 100130Z 16007KT 22/07 A2975 RMK A01 T02160070  RH  039%=      5-min Rain = 0
KCH1 100131Z 17007KT 22/07 A2975 RMK A01 T02160070  RH  039%=      5-min Rain = 0
KCH1 100132Z 17007KT 22/07 A2975 RMK A01 T02150070  RH  039%=      5-min Rain = 0
KCH1 100133Z 17008KT 21/07 A2975 RMK A01 T02140070  RH  039%=      5-min Rain = 0
KCH1 100134Z 17008KT 21/07 A2975 RMK A01 T02140071  RH  039%=      5-min Rain = 0
KCH1 100135Z 17009KT 21/07 A2975 RMK A01 T02140071  RH  039%=      5-min Rain = 0
KCH1 100136Z 17011KT 22/07 A2974 RMK A01 T02150071  RH  039%=      5-min Rain = 0
KCH1 100137Z 17010KT 22/07 A2975 RMK A01 T02160072  RH  039%=      5-min Rain = 0
KCH1 100138Z 18009KT 22/07 A2975 RMK A01 T02170073  RH  039%=      5-min Rain = 0
KCH1 100139Z 17009KT 22/07 A2975 RMK A01 T02160073  RH  040%=      5-min Rain = 0
KCH1 100140Z 18010KT 22/07 A2975 RMK A01 T02150073  RH  040%=      5-min Rain = 0
KCH1 100141Z 18009KT 22/07 A2975 RMK A01 T02150073  RH  040%=      5-min Rain = 0
KCH1 100142Z 18009KT 22/07 A2975 RMK A01 T02150073  RH  040%=      5-min Rain = 0
KCH1 100143Z 18010KT 22/07 A2975 RMK A01 T02150074  RH  040%=      5-min Rain = 0
KCH1 100144Z 18009G14KT 22/07 A2975 RMK A01 T02150074  RH  040%=      5-min Rain = 0
KCH1 100145Z 18008KT 22/07 A2975 RMK A01 T02150074  RH  040%=      5-min Rain = 0
KCH1 100146Z 18010KT 22/07 A2975 RMK A01 T02150074  RH  040%=      5-min Rain = 0
KCH1 100147Z 18009KT 22/08 A2975 RMK A01 T02150075  RH  040%=      5-min Rain = 0
KCH1 100148Z 18007KT 22/08 A2975 RMK A01 T02150075  RH  040%=      5-min Rain = 0
KCH1 100149Z 18009KT 22/08 A2975 RMK A01 T02150075  RH  040%=      5-min Rain = 0
KCH1 100150Z 18010KT 21/08 A2975 RMK A01 T02140075  RH  041%=      5-min Rain = 0
KCH1 100151Z 18009KT 21/08 A2975 RMK A01 T02140075  RH  041%=      5-min Rain = 0
KCH1 100152Z 19009KT 21/08 A2975 RMK A01 T02140075  RH  041%=      5-min Rain = 0
KCH1 100153Z 18009KT 21/08 A2975 RMK A01 T02140076  RH  041%=      5-min Rain = 0
KCH1 100154Z 19008KT 21/08 A2975 RMK A01 T02140076  RH  041%=      5-min Rain = 0
KCH1 100155Z 19011KT 21/08 A2975 RMK A01 T02140076  RH  041%=      5-min Rain = 0
KCH1 100156Z 18010KT 21/08 A2975 RMK A01 T02130076  RH  041%=      5-min Rain = 0
KCH1 100157Z 18010KT 21/08 A2975 RMK A01 T02140076  RH  041%=      5-min Rain = 0
KCH1 100158Z 18010KT 21/08 A2975 RMK A01 T02140076  RH  041%=      5-min Rain = 0
KCH1 100159Z 18009KT 21/08 A2975 RMK A01 T02140076  RH  041%=      5-min Rain = 0
KCH1 100200Z 19007KT 21/08 A2975 RMK A01 T02140077  RH  041%=      5-min Rain = 0
KCH1 100201Z 18010KT 21/08 A2975 RMK A01 T02130076  RH  041%=      5-min Rain = 0
KCH1 100202Z 18009KT 21/08 A2975 RMK A01 T02130077  RH  041%=      5-min Rain = 0
KCH1 100203Z 18010KT 21/08 A2975 RMK A01 T02130076  RH  041%=      5-min Rain = 0
KCH1 100204Z 18010KT 21/08 A2975 RMK A01 T02130077  RH  041%=      5-min Rain = 0
KCH1 100205Z 18009KT 21/08 A2975 RMK A01 T02130077  RH  041%=      5-min Rain = 0
KCH1 100206Z 18010KT 21/08 A2976 RMK A01 T02120076  RH  041%=      5-min Rain = 0
KCH1 100207Z 19009KT 21/08 A2976 RMK A01 T02120077  RH  042%=      5-min Rain = 0
KCH1 100208Z 19008KT 21/08 A2976 RMK A01 T02120077  RH  042%=      5-min Rain = 0
KCH1 100209Z 19008KT 21/08 A2976 RMK A01 T02120077  RH  042%=      5-min Rain = 0
KCH1 100210Z 19008KT 21/08 A2976 RMK A01 T02120077  RH  042%=      5-min Rain = 0
KCH1 100211Z 19010KT 21/08 A2976 RMK A01 T02110076  RH  042%=      5-min Rain = 0
KCH1 100212Z 20009KT 21/08 A2976 RMK A01 T02110077  RH  042%=      5-min Rain = 0
KCH1 100213Z 19008KT 21/08 A2976 RMK A01 T02110077  RH  042%=      5-min Rain = 0
KCH1 100214Z 19008KT 21/08 A2976 RMK A01 T02090076  RH  042%=      5-min Rain = 0
KCH1 100215Z 19009KT 21/08 A2976 RMK A01 T02090076  RH  042%=      5-min Rain = 0
KCH1 100216Z 19008KT 21/08 A2976 RMK A01 T02080077  RH  043%=      5-min Rain = 0
KCH1 100217Z 19006KT 21/08 A2976 RMK A01 T02080076  RH  043%=      5-min Rain = 0
KCH1 100218Z 19008KT 21/08 A2976 RMK A01 T02070076  RH  043%=      5-min Rain = 0
KCH1 100219Z 19009KT 21/08 A2976 RMK A01 T02060076  RH  043%=      5-min Rain = 0
KCH1 100220Z 20007KT 21/08 A2976 RMK A01 T02060077  RH  043%=      5-min Rain = 0
KCH1 100221Z 20009KT 21/08 A2976 RMK A01 T02060076  RH  043%=      5-min Rain = 0
KCH1 100222Z 20008KT 21/08 A2977 RMK A01 T02060076  RH  043%=      5-min Rain = 0
KCH1 100223Z 20008KT 21/08 A2977 RMK A01 T02050076  RH  043%=      5-min Rain = 0
KCH1 100224Z 20009KT 20/08 A2977 RMK A01 T02040076  RH  044%=      5-min Rain = 0
KCH1 100225Z 20007KT 20/08 A2977 RMK A01 T02040076  RH  044%=      5-min Rain = 0
KCH1 100226Z 19007KT 20/08 A2977 RMK A01 T02040076  RH  044%=      5-min Rain = 0
KCH1 100227Z 20007KT 20/08 A2977 RMK A01 T02030077  RH  044%=      5-min Rain = 0
KCH1 100228Z 20007KT 20/08 A2977 RMK A01 T02030077  RH  044%=      5-min Rain = 0
KCH1 100229Z 20007KT 20/08 A2977 RMK A01 T02030077  RH  044%=      5-min Rain = 0
KCH1 100230Z 20006KT 20/08 A2977 RMK A01 T02030076  RH  044%=      5-min Rain = 0
KCH1 100231Z 19006KT 20/08 A2977 RMK A01 T02020077  RH  044%=      5-min Rain = 0
KCH1 100232Z 20007KT 20/08 A2977 RMK A01 T02010076  RH  044%=      5-min Rain = 0
KCH1 100233Z 19006KT 20/08 A2977 RMK A01 T02000077  RH  045%=      5-min Rain = 0
KCH1 100234Z 19006KT 20/08 A2977 RMK A01 T02000076  RH  045%=      5-min Rain = 0
KCH1 100235Z 20006KT 20/08 A2977 RMK A01 T02000077  RH  045%=      5-min Rain = 0
KCH1 100236Z 20007KT 20/08 A2977 RMK A01 T01990077  RH  045%=      5-min Rain = 0
KCH1 100237Z 20006KT 20/08 A2977 RMK A01 T01980077  RH  045%=      5-min Rain = 0
KCH1 100238Z 20006KT 20/08 A2977 RMK A01 T01980077  RH  045%=      5-min Rain = 0
KCH1 100239Z 19006KT 20/08 A2977 RMK A01 T01980077  RH  045%=      5-min Rain = 0
KCH1 100240Z 20007KT 20/08 A2977 RMK A01 T01980077  RH  046%=      5-min Rain = 0
KCH1 100241Z 19007KT 20/08 A2977 RMK A01 T01970077  RH  046%=      5-min Rain = 0
KCH1 100242Z 19006KT 20/08 A2977 RMK A01 T01970077  RH  046%=      5-min Rain = 0
KCH1 100243Z 20007KT 20/08 A2977 RMK A01 T01970077  RH  046%=      5-min Rain = 0
KCH1 100244Z 19007KT 20/08 A2977 RMK A01 T01960077  RH  046%=      5-min Rain = 0
KCH1 100245Z 20006KT 20/08 A2977 RMK A01 T01960078  RH  046%=      5-min Rain = 0
KCH1 100246Z 20007KT 20/08 A2977 RMK A01 T01950078  RH  047%=      5-min Rain = 0
KCH1 100247Z 19007KT 20/08 A2977 RMK A01 T01950078  RH  047%=      5-min Rain = 0
KCH1 100248Z 20006KT 19/08 A2977 RMK A01 T01940078  RH  047%=      5-min Rain = 0
KCH1 100249Z 20006KT 19/08 A2977 RMK A01 T01940078  RH  047%=      5-min Rain = 0
KCH1 100250Z 20007KT 19/08 A2978 RMK A01 T01930079  RH  047%=      5-min Rain = 0
KCH1 100251Z 20007KT 19/08 A2978 RMK A01 T01930079  RH  047%=      5-min Rain = 0
KCH1 100252Z 20007KT 19/08 A2978 RMK A01 T01930079  RH  047%=      5-min Rain = 0
KCH1 100253Z 20007KT 19/08 A2978 RMK A01 T01930079  RH  048%=      5-min Rain = 0
KCH1 100254Z 20007KT 19/08 A2978 RMK A01 T01930079  RH  048%=      5-min Rain = 0
KCH1 100255Z 20006KT 19/08 A2978 RMK A01 T01920079  RH  048%=      5-min Rain = 0
KCH1 100256Z 20007KT 19/08 A2978 RMK A01 T01920079  RH  048%=      5-min Rain = 0
KCH1 100257Z 20006KT 19/08 A2978 RMK A01 T01920079  RH  048%=      5-min Rain = 0
KCH1 100258Z 20006KT 19/08 A2978 RMK A01 T01910080  RH  048%=      5-min Rain = 0
KCH1 100259Z 20006KT 19/08 A2978 RMK A01 T01910080  RH  049%=      5-min Rain = 0
KCH1 100300Z 20006KT 19/08 A2978 RMK A01 T01900081  RH  049%=      5-min Rain = 0
KCH1 100301Z 19007KT 19/08 A2978 RMK A01 T01890081  RH  049%=      5-min Rain = 0
KCH1 100302Z 19007KT 19/08 A2978 RMK A01 T01900081  RH  049%=      5-min Rain = 0
KCH1 100303Z 20007KT 19/08 A2978 RMK A01 T01900082  RH  049%=      5-min Rain = 0
KCH1 100304Z 19007KT 19/08 A2978 RMK A01 T01900082  RH  050%=      5-min Rain = 0
KCH1 100305Z 19007KT 19/08 A2978 RMK A01 T01900082  RH  050%=      5-min Rain = 0
KCH1 100306Z 20008KT 19/08 A2978 RMK A01 T01900082  RH  050%=      5-min Rain = 0
KCH1 100307Z 20008KT 19/08 A2978 RMK A01 T01900083  RH  050%=      5-min Rain = 0
KCH1 100308Z 20008KT 19/08 A2978 RMK A01 T01900083  RH  050%=      5-min Rain = 0
KCH1 100309Z 20007KT 19/08 A2978 RMK A01 T01900084  RH  050%=      5-min Rain = 0
KCH1 100310Z 20007KT 19/08 A2978 RMK A01 T01900084  RH  050%=      5-min Rain = 0
KCH1 100311Z 20008KT 19/08 A2978 RMK A01 T01910084  RH  050%=      5-min Rain = 0
KCH1 100312Z 20008KT 19/09 A2978 RMK A01 T01910085  RH  050%=      5-min Rain = 0
KCH1 100313Z 19007KT 19/09 A2978 RMK A01 T01910085  RH  050%=      5-min Rain = 0
KCH1 100314Z 20008KT 19/09 A2978 RMK A01 T01910085  RH  050%=      5-min Rain = 0
KCH1 100315Z 20008KT 19/09 A2978 RMK A01 T01900086  RH  051%=      5-min Rain = 0
KCH1 100316Z 20009KT 19/09 A2978 RMK A01 T01900086  RH  051%=      5-min Rain = 0
KCH1 100317Z 20007G13KT 19/09 A2978 RMK A01 T01900086  RH  051%=      5-min Rain = 0
KCH1 100318Z 20009KT 19/09 A2978 RMK A01 T01910087  RH  051%=      5-min Rain = 0
KCH1 100319Z 20009KT 19/09 A2978 RMK A01 T01920088  RH  051%=      5-min Rain = 0
KCH1 100320Z 21011KT 19/09 A2978 RMK A01 T01930088  RH  051%=      5-min Rain = 0
KCH1 100321Z 20009KT 19/09 A2978 RMK A01 T01940088  RH  051%=      5-min Rain = 0
KCH1 100322Z 21009KT 19/09 A2978 RMK A01 T01940088  RH  050%=      5-min Rain = 0
KCH1 100323Z 21009KT 19/09 A2978 RMK A01 T01940088  RH  050%=      5-min Rain = 0
KCH1 100324Z 20007KT 19/09 A2978 RMK A01 T01940089  RH  050%=      5-min Rain = 0
KCH1 100325Z 20009KT 19/09 A2978 RMK A01 T01940089  RH  051%=      5-min Rain = 0
KCH1 100326Z 21009KT 19/09 A2978 RMK A01 T01930089  RH  051%=      5-min Rain = 0
KCH1 100327Z 21007KT 19/09 A2978 RMK A01 T01930089  RH  051%=      5-min Rain = 0
KCH1 100328Z 21009KT 19/09 A2978 RMK A01 T01930089  RH  051%=      5-min Rain = 0
KCH1 100329Z 21008KT 19/09 A2978 RMK A01 T01940090  RH  051%=      5-min Rain = 0
KCH1 100330Z 21008KT 19/09 A2978 RMK A01 T01940090  RH  051%=      5-min Rain = 0
KCH1 100331Z 21008KT 19/09 A2978 RMK A01 T01940090  RH  051%=      5-min Rain = 0
KCH1 100332Z 21007KT 19/09 A2978 RMK A01 T01940090  RH  051%=      5-min Rain = 0
KCH1 100333Z 21008KT 19/09 A2978 RMK A01 T01940090  RH  051%=      5-min Rain = 0
KCH1 100334Z 21007KT 19/09 A2978 RMK A01 T01940091  RH  051%=      5-min Rain = 0
KCH1 100335Z 21007KT 19/09 A2978 RMK A01 T01940091  RH  051%=      5-min Rain = 0
KCH1 100336Z 21007KT 19/09 A2978 RMK A01 T01940091  RH  051%=      5-min Rain = 0
KCH1 100337Z 21009KT 19/09 A2978 RMK A01 T01940091  RH  051%=      5-min Rain = 0
KCH1 100338Z 20008KT 19/09 A2978 RMK A01 T01940091  RH  051%=      5-min Rain = 0
KCH1 100339Z 21009KT 19/09 A2978 RMK A01 T01930091  RH  052%=      5-min Rain = 0
KCH1 100340Z 21010KT 19/09 A2978 RMK A01 T01930091  RH  052%=      5-min Rain = 0
KCH1 100341Z 21008KT 19/09 A2978 RMK A01 T01940091  RH  052%=      5-min Rain = 0
KCH1 100342Z 22010KT 19/09 A2978 RMK A01 T01940092  RH  051%=      5-min Rain = 0
KCH1 100343Z 21008KT 19/09 A2978 RMK A01 T01940091  RH  051%=      5-min Rain = 0
KCH1 100344Z 21009KT 19/09 A2978 RMK A01 T01940091  RH  051%=      5-min Rain = 0
KCH1 100345Z 21009KT 19/09 A2978 RMK A01 T01940092  RH  052%=      5-min Rain = 0
KCH1 100346Z 21008KT 19/09 A2978 RMK A01 T01940092  RH  052%=      5-min Rain = 0
KCH1 100347Z 22007G12KT 19/09 A2978 RMK A01 T01940092  RH  052%=      5-min Rain = 0
KCH1 100348Z 21008KT 19/09 A2979 RMK A01 T01940092  RH  052%=      5-min Rain = 0
KCH1 100349Z 21008KT 19/09 A2979 RMK A01 T01930092  RH  052%=      5-min Rain = 0
KCH1 100350Z 21008KT 19/09 A2979 RMK A01 T01930092  RH  052%=      5-min Rain = 0
KCH1 100351Z 21008KT 19/09 A2979 RMK A01 T01930092  RH  052%=      5-min Rain = 0
KCH1 100352Z 21008KT 19/09 A2979 RMK A01 T01920093  RH  052%=      5-min Rain = 0
KCH1 100353Z 20008KT 19/09 A2979 RMK A01 T01920092  RH  052%=      5-min Rain = 0
KCH1 100354Z 20008G13KT 19/09 A2979 RMK A01 T01920093  RH  053%=      5-min Rain = 0
KCH1 100355Z 21007KT 19/09 A2979 RMK A01 T01920093  RH  053%=      5-min Rain = 0
KCH1 100356Z 21008KT 19/09 A2979 RMK A01 T01910093  RH  053%=      5-min Rain = 0
KCH1 100357Z 21008KT 19/09 A2979 RMK A01 T01910093  RH  053%=      5-min Rain = 0
KCH1 100358Z 21008KT 19/09 A2979 RMK A01 T01910093  RH  053%=      5-min Rain = 0
KCH1 100359Z 21009KT 19/09 A2979 RMK A01 T01910093  RH  053%=      5-min Rain = 0
KCH1 100400Z 21007G13KT 19/09 A2979 RMK A01 T01910093  RH  053%=      5-min Rain = 0
KCH1 100401Z 21010KT 19/09 A2979 RMK A01 T01910094  RH  053%=      5-min Rain = 0
KCH1 100402Z 20008KT 19/09 A2979 RMK A01 T01910094  RH  053%=      5-min Rain = 0
KCH1 100403Z 22009KT 19/09 A2979 RMK A01 T01910094  RH  053%=      5-min Rain = 0
KCH1 100404Z 21008KT 19/09 A2979 RMK A01 T01910094  RH  053%=      5-min Rain = 0
KCH1 100405Z 21008KT 19/10 A2979 RMK A01 T01920095  RH  053%=      5-min Rain = 0
KCH1 100406Z 21009KT 19/09 A2979 RMK A01 T01910094  RH  053%=      5-min Rain = 0
KCH1 100407Z 22007KT 19/10 A2979 RMK A01 T01910095  RH  054%=      5-min Rain = 0
KCH1 100408Z 21007KT 19/10 A2979 RMK A01 T01910095  RH  054%=      5-min Rain = 0
KCH1 100409Z 21008KT 19/10 A2979 RMK A01 T01900095  RH  054%=      5-min Rain = 0
KCH1 100410Z 21007KT 19/10 A2979 RMK A01 T01910095  RH  054%=      5-min Rain = 0
KCH1 100411Z 21006KT 19/10 A2979 RMK A01 T01900095  RH  054%=      5-min Rain = 0
KCH1 100412Z 21008KT 19/10 A2979 RMK A01 T01900095  RH  054%=      5-min Rain = 0
KCH1 100413Z 21007KT 19/10 A2979 RMK A01 T01900095  RH  054%=      5-min Rain = 0
KCH1 100414Z 21007KT 19/10 A2979 RMK A01 T01900095  RH  054%=      5-min Rain = 0
KCH1 100415Z 21008KT 19/10 A2979 RMK A01 T01890095  RH  054%=      5-min Rain = 0
KCH1 100416Z 21008KT 19/10 A2979 RMK A01 T01890095  RH  054%=      5-min Rain = 0
KCH1 100417Z 21009KT 19/10 A2979 RMK A01 T01890095  RH  054%=      5-min Rain = 0
KCH1 100418Z 21010KT 19/10 A2979 RMK A01 T01890095  RH  054%=      5-min Rain = 0
KCH1 100419Z 21009KT 19/10 A2979 RMK A01 T01890095  RH  054%=      5-min Rain = 0
KCH1 100420Z 21010KT 19/10 A2979 RMK A01 T01900095  RH  054%=      5-min Rain = 0
KCH1 100421Z 21008KT 19/10 A2979 RMK A01 T01900095  RH  054%=      5-min Rain = 0
KCH1 100422Z 21010KT 19/10 A2979 RMK A01 T01900095  RH  054%=      5-min Rain = 0
KCH1 100423Z 20009KT 19/10 A2979 RMK A01 T01900095  RH  054%=      5-min Rain = 0
KCH1 100424Z 21008KT 19/10 A2979 RMK A01 T01900095  RH  054%=      5-min Rain = 0
KCH1 100425Z 21007G12KT 19/10 A2979 RMK A01 T01900095  RH  054%=      5-min Rain = 0
KCH1 100426Z 21006G11KT 19/10 A2979 RMK A01 T01890095  RH  054%=      5-min Rain = 0
KCH1 100427Z 20007KT 19/10 A2979 RMK A01 T01890095  RH  054%=      5-min Rain = 0
KCH1 100428Z 21007KT 19/10 A2979 RMK A01 T01880095  RH  054%=      5-min Rain = 0
KCH1 100429Z 21008KT 19/10 A2979 RMK A01 T01880095  RH  055%=      5-min Rain = 0
KCH1 100430Z 21008KT 19/10 A2979 RMK A01 T01880095  RH  054%=      5-min Rain = 0
KCH1 100431Z 20007KT 19/10 A2979 RMK A01 T01880095  RH  054%=      5-min Rain = 0
KCH1 100432Z 20005KT 19/09 A2979 RMK A01 T01880094  RH  054%=      5-min Rain = 0
KCH1 100433Z 21006KT 19/10 A2979 RMK A01 T01880095  RH  055%=      5-min Rain = 0
KCH1 100434Z 21006KT 19/10 A2979 RMK A01 T01870095  RH  055%=      5-min Rain = 0
KCH1 100435Z 20005KT 19/09 A2979 RMK A01 T01870094  RH  055%=      5-min Rain = 0
KCH1 100436Z 20006KT 19/10 A2979 RMK A01 T01870095  RH  055%=      5-min Rain = 0
KCH1 100437Z 20007KT 19/10 A2978 RMK A01 T01860095  RH  055%=      5-min Rain = 0
KCH1 100438Z 20008KT 19/10 A2978 RMK A01 T01860095  RH  055%=      5-min Rain = 0
KCH1 100439Z 20006KT 19/10 A2979 RMK A01 T01860095  RH  055%=      5-min Rain = 0
KCH1 100440Z 21007KT 19/10 A2979 RMK A01 T01850095  RH  056%=      5-min Rain = 0
KCH1 100441Z 20007KT 19/10 A2979 RMK A01 T01850095  RH  056%=      5-min Rain = 0
KCH1 100442Z 20008KT 19/10 A2979 RMK A01 T01850095  RH  056%=      5-min Rain = 0
KCH1 100443Z 21007KT 19/10 A2979 RMK A01 T01850095  RH  056%=      5-min Rain = 0
KCH1 100444Z 21006KT 19/10 A2979 RMK A01 T01850095  RH  056%=      5-min Rain = 0
KCH1 100445Z 21005KT 18/10 A2979 RMK A01 T01840095  RH  056%=      5-min Rain = 0
KCH1 100446Z 21009KT 18/10 A2979 RMK A01 T01830095  RH  056%=      5-min Rain = 0
KCH1 100447Z 21006KT 18/10 A2979 RMK A01 T01830095  RH  056%=      5-min Rain = 0
KCH1 100448Z 21008KT 18/10 A2979 RMK A01 T01840095  RH  056%=      5-min Rain = 0
KCH1 100449Z 21009KT 18/10 A2979 RMK A01 T01840095  RH  056%=      5-min Rain = 0
KCH1 100450Z 21007KT 18/10 A2979 RMK A01 T01840095  RH  056%=      5-min Rain = 0
KCH1 100451Z 21009KT 18/10 A2979 RMK A01 T01840095  RH  056%=      5-min Rain = 0
KCH1 100452Z 20007KT 18/10 A2979 RMK A01 T01840095  RH  056%=      5-min Rain = 0
KCH1 100453Z 21008KT 18/10 A2979 RMK A01 T01840095  RH  056%=      5-min Rain = 0
KCH1 100454Z 21007KT 18/10 A2979 RMK A01 T01840095  RH  056%=      5-min Rain = 0
KCH1 100455Z 21007KT 18/10 A2979 RMK A01 T01840095  RH  056%=      5-min Rain = 0
KCH1 100456Z 21007G12KT 18/10 A2979 RMK A01 T01840095  RH  056%=      5-min Rain = 0
KCH1 100457Z 21005KT 18/10 A2979 RMK A01 T01840095  RH  056%=      5-min Rain = 0
KCH1 100458Z 21006KT 18/10 A2979 RMK A01 T01830095  RH  057%=      5-min Rain = 0
KCH1 100459Z 21006KT 18/10 A2979 RMK A01 T01820095  RH  057%=      5-min Rain = 0
KCH1 100500Z 21006KT 18/10 A2979 RMK A01 T01820095  RH  057%=      5-min Rain = 0
KCH1 100501Z 20008KT 18/10 A2979 RMK A01 T01810095  RH  057%=      5-min Rain = 0
KCH1 100502Z 20006KT 18/10 A2979 RMK A01 T01810096  RH  057%=      5-min Rain = 0
KCH1 100503Z 21006KT 18/10 A298 RMK A01 T01810095  RH  057%=      5-min Rain = 0
KCH1 100504Z 20006KT 18/10 A298 RMK A01 T01810095  RH  057%=      5-min Rain = 0
KCH1 100505Z 21005KT 18/10 A2979 RMK A01 T01800096  RH  058%=      5-min Rain = 0
KCH1 100506Z 20007KT 18/10 A2979 RMK A01 T01800096  RH  058%=      5-min Rain = 0
KCH1 100507Z 19005KT 18/10 A2979 RMK A01 T01800096  RH  058%=      5-min Rain = 0
KCH1 100508Z 19007G12KT 18/10 A2979 RMK A01 T01790096  RH  058%=      5-min Rain = 0
KCH1 100509Z 20008KT 18/10 A2979 RMK A01 T01790097  RH  059%=      5-min Rain = 0
KCH1 100510Z 19007KT 18/10 A2979 RMK A01 T01790097  RH  059%=      5-min Rain = 0
KCH1 100511Z 19007KT 18/10 A2979 RMK A01 T01790097  RH  059%=      5-min Rain = 0
KCH1 100512Z 20008KT 18/10 A2979 RMK A01 T01790097  RH  059%=      5-min Rain = 0
KCH1 100513Z 19005KT 18/10 A2979 RMK A01 T01780097  RH  059%=      5-min Rain = 0
KCH1 100514Z 17004G9KT 18/10 A2979 RMK A01 T01770097  RH  059%=      5-min Rain = 0
KCH1 100515Z 17004KT 18/10 A2979 RMK A01 T01760097  RH  060%=      5-min Rain = 0
KCH1 100516Z 17004KT 18/10 A2979 RMK A01 T01750097  RH  060%=      5-min Rain = 0
KCH1 100517Z 19004KT 17/10 A298 RMK A01 T01740097  RH  060%=      5-min Rain = 0
KCH1 100518Z 18003KT 17/10 A298 RMK A01 T01730097  RH  061%=      5-min Rain = 0
KCH1 100519Z 17003KT 17/10 A298 RMK A01 T01730097  RH  061%=      5-min Rain = 0
KCH1 100520Z 19004KT 17/09 A298 RMK A01 T01700094  RH  061%=      5-min Rain = 0
KCH1 100521Z 19006KT 17/10 A298 RMK A01 T01680096  RH  062%=      5-min Rain = 0
KCH1 100522Z 19004KT 17/10 A298 RMK A01 T01700098  RH  063%=      5-min Rain = 0
KCH1 100523Z 20005KT 17/10 A298 RMK A01 T01710099  RH  062%=      5-min Rain = 0
KCH1 100524Z 20005KT 17/10 A298 RMK A01 T01730100  RH  062%=      5-min Rain = 0
KCH1 100525Z 20005KT 17/10 A298 RMK A01 T01730100  RH  062%=      5-min Rain = 0
KCH1 100526Z 20007KT 17/10 A298 RMK A01 T01740100  RH  062%=      5-min Rain = 0
KCH1 100527Z 19006KT 17/10 A298 RMK A01 T01740100  RH  062%=      5-min Rain = 0
KCH1 100528Z 19008KT 17/10 A298 RMK A01 T01740101  RH  062%=      5-min Rain = 0
KCH1 100529Z 19004KT 17/10 A298 RMK A01 T01740100  RH  062%=      5-min Rain = 0
KCH1 100530Z 19003KT 17/10 A298 RMK A01 T01730096  RH  061%=      5-min Rain = 0
KCH1 100531Z 18004KT 17/09 A298 RMK A01 T01670093  RH  061%=      5-min Rain = 0
KCH1 100532Z 19006KT 17/10 A298 RMK A01 T01650097  RH  064%=      5-min Rain = 0
KCH1 100533Z 19007KT 17/10 A298 RMK A01 T01650098  RH  065%=      5-min Rain = 0
KCH1 100534Z 18005KT 17/10 A298 RMK A01 T01670098  RH  064%=      5-min Rain = 0
KCH1 100535Z 18004KT 17/10 A298 RMK A01 T01670096  RH  063%=      5-min Rain = 0
KCH1 100536Z 18003KT 16/10 A298 RMK A01 T01640096  RH  064%=      5-min Rain = 0
KCH1 100537Z 19003KT 16/09 A298 RMK A01 T01620094  RH  064%=      5-min Rain = 0
KCH1 100538Z 19004KT 16/10 A298 RMK A01 T01600096  RH  066%=      5-min Rain = 0
KCH1 100539Z 21004KT 16/10 A298 RMK A01 T01600100  RH  067%=      5-min Rain = 0
KCH1 100540Z 19005KT 16/10 A298 RMK A01 T01630102  RH  067%=      5-min Rain = 0
KCH1 100541Z 19005KT 17/10 A298 RMK A01 T01650101  RH  066%=      5-min Rain = 0
KCH1 100542Z 19004KT 17/10 A298 RMK A01 T01660102  RH  066%=      5-min Rain = 0
KCH1 100543Z 20008KT 17/10 A298 RMK A01 T01670102  RH  065%=      5-min Rain = 0
KCH1 100544Z 19007KT 17/10 A298 RMK A01 T01690104  RH  065%=      5-min Rain = 0
KCH1 100545Z 19007KT 17/10 A298 RMK A01 T01690104  RH  065%=      5-min Rain = 0
KCH1 100546Z 18007KT 17/10 A2979 RMK A01 T01700104  RH  065%=      5-min Rain = 0
KCH1 100547Z 19007KT 17/10 A2979 RMK A01 T01700104  RH  065%=      5-min Rain = 0
KCH1 100548Z 18006KT 17/10 A2979 RMK A01 T01690104  RH  065%=      5-min Rain = 0
KCH1 100549Z 18004KT 17/11 A2979 RMK A01 T01690105  RH  066%=      5-min Rain = 0
KCH1 100550Z 18007KT 17/11 A2979 RMK A01 T01680105  RH  066%=      5-min Rain = 0
KCH1 100551Z 19007KT 17/11 A2979 RMK A01 T01690106  RH  067%=      5-min Rain = 0
KCH1 100552Z 19007KT 17/11 A2979 RMK A01 T01680108  RH  067%=      5-min Rain = 0
KCH1 100553Z 18006KT 17/11 A298 RMK A01 T01690108  RH  067%=      5-min Rain = 0
KCH1 100554Z 11004KT 17/10 A298 RMK A01 T01680103  RH  066%=      5-min Rain = 0
KCH1 100555Z 11003KT 16/10 A298 RMK A01 T01610095  RH  065%=      5-min Rain = 0
KCH1 100556Z 12002KT 16/09 A298 RMK A01 T01560092  RH  066%=      5-min Rain = 0
KCH1 100557Z 12002KT 15/09 A298 RMK A01 T01520092  RH  067%=      5-min Rain = 0
KCH1 100558Z 12002KT 15/09 A298 RMK A01 T01490094  RH  069%=      5-min Rain = 0
KCH1 100559Z 11002KT 15/09 A298 RMK A01 T01460093  RH  070%=      5-min Rain = 0

Page generated in 0.085 seconds.